Time,TemperatureF,DewpointF,PressureIn,WindDirection,WindDirectionDegrees,WindSpeedMPH,WindSpeedGustMPH,Humidity,HourlyPrecipIn,Conditions,Clouds,dailyrainin,SoftwareType,DateUTC
2013-03-25 00:00:00,29.4,22.7,29.64,NE,35,9.7,9.7,76,0.00,,,0.00,VWS V14.01,2013-03-25 04:00:00,
2013-03-25 00:02:00,29.4,22.7,29.64,NNE,33,12.1,14.3,76,0.00,,,0.00,VWS V14.01,2013-03-25 04:02:00,
2013-03-25 00:04:00,29.4,22.9,29.64,NE,41,12.9,14.6,76,0.00,,,0.00,VWS V14.01,2013-03-25 04:04:00,
2013-03-25 00:07:00,29.2,23.4,29.64,NE,43,10.7,14.6,79,0.00,,,0.00,VWS V14.01,2013-03-25 04:07:00,
2013-03-25 00:08:00,29.1,23.2,29.64,ENE,67,10.0,14.6,78,0.00,,,0.00,VWS V14.01,2013-03-25 04:08:00,
2013-03-25 00:10:00,29.1,23.6,29.64,NE,44,11.1,14.6,80,0.00,,,0.00,VWS V14.01,2013-03-25 04:10:00,
2013-03-25 00:12:00,29.2,23.8,29.64,NE,43,11.7,14.6,80,0.00,,,0.00,VWS V14.01,2013-03-25 04:12:00,
2013-03-25 00:13:00,29.1,23.7,29.64,ENE,61,13.5,14.6,80,0.00,,,0.00,VWS V14.01,2013-03-25 04:13:00,
2013-03-25 00:18:00,28.9,24.0,29.63,NE,51,9.7,14.6,82,0.00,,,0.00,VWS V14.01,2013-03-25 04:18:00,
2013-03-25 00:19:00,28.9,24.1,29.63,NE,49,12.3,14.6,82,0.00,,,0.00,VWS V14.01,2013-03-25 04:19:00,
2013-03-25 00:22:00,28.8,24.3,29.63,NE,38,10.5,14.6,83,0.00,,,0.00,VWS V14.01,2013-03-25 04:22:00,
2013-03-25 00:24:00,28.8,24.6,29.64,NNE,27,8.8,14.6,84,0.00,,,0.00,VWS V14.01,2013-03-25 04:24:00,
2013-03-25 00:26:00,28.6,24.8,29.64,NNE,31,7.6,14.6,85,0.00,,,0.00,VWS V14.01,2013-03-25 04:26:00,
2013-03-25 00:29:00,28.7,25.0,29.64,NE,49,11.1,14.6,86,0.00,,,0.00,VWS V14.01,2013-03-25 04:29:00,
2013-03-25 00:30:00,28.6,25.0,29.64,NE,38,7.1,14.6,86,0.00,,,0.00,VWS V14.01,2013-03-25 04:30:00,
2013-03-25 00:32:00,28.6,25.2,29.64,NNE,15,9.9,14.6,87,0.00,,,0.00,VWS V14.01,2013-03-25 04:32:00,
2013-03-25 00:36:00,28.5,25.4,29.63,NE,49,8.3,14.6,88,0.00,,,0.00,VWS V14.01,2013-03-25 04:36:00,
2013-03-25 00:37:00,28.5,25.4,29.62,ENE,74,12.1,17.9,88,0.00,,,0.00,VWS V14.01,2013-03-25 04:37:00,
2013-03-25 00:38:00,28.5,25.3,29.62,NNE,23,10.9,17.9,88,0.00,,,0.00,VWS V14.01,2013-03-25 04:38:00,
2013-03-25 00:42:00,28.5,25.7,29.63,ENE,57,9.9,17.9,89,0.00,,,0.00,VWS V14.01,2013-03-25 04:42:00,
2013-03-25 00:43:00,28.5,25.8,29.63,NE,54,9.5,17.9,90,0.00,,,0.00,VWS V14.01,2013-03-25 04:43:00,
2013-03-25 00:44:00,28.4,25.7,29.62,NE,37,8.3,17.9,90,0.00,,,0.00,VWS V14.01,2013-03-25 04:44:00,
2013-03-25 00:45:00,28.4,26.0,29.62,NE,47,10.7,17.9,90,0.00,,,0.00,VWS V14.01,2013-03-25 04:45:00,
2013-03-25 00:49:00,28.4,26.0,29.63,ENE,71,8.7,17.9,91,0.00,,,0.00,VWS V14.01,2013-03-25 04:49:00,
2013-03-25 00:50:00,28.3,25.9,29.63,NE,40,9.7,17.9,91,0.00,,,0.00,VWS V14.01,2013-03-25 04:50:00,
2013-03-25 00:54:00,28.4,26.0,29.62,NE,35,11.7,17.9,91,0.00,,,0.00,VWS V14.01,2013-03-25 04:54:00,
2013-03-25 00:55:00,28.4,26.1,29.63,NE,47,8.7,17.9,91,0.00,,,0.00,VWS V14.01,2013-03-25 04:55:00,
2013-03-25 00:56:00,28.4,26.1,29.63,NE,47,8.7,17.9,91,0.00,,,0.00,VWS V14.01,2013-03-25 04:56:00,
2013-03-25 00:59:00,28.2,26.2,29.67,NE,46,11.1,17.9,92,0.00,,,0.00,VWS V14.01,2013-03-25 04:59:00,
2013-03-25 01:00:00,30.5,19.0,29.64,NNE,28,11.7,11.7,62,0.00,,,0.00,VWS V14.01,2013-03-25 05:00:00,
2013-03-25 01:01:00,28.3,26.3,29.62,ENE,70,14.0,17.9,92,0.00,,,0.00,VWS V14.01,2013-03-25 05:01:00,
2013-03-25 01:02:00,28.2,26.2,29.62,NE,37,9.3,14.0,92,0.00,,,0.00,VWS V14.01,2013-03-25 05:02:00,
2013-03-25 01:03:00,30.4,19.3,29.64,NE,54,9.5,9.5,63,0.00,,,0.00,VWS V14.01,2013-03-25 05:03:00,
2013-03-25 01:04:00,30.4,19.2,29.64,ENE,60,7.3,9.5,63,0.00,,,0.00,VWS V14.01,2013-03-25 05:04:00,
2013-03-25 01:05:00,28.3,26.3,29.63,NNE,13,12.3,15.3,92,0.00,,,0.00,VWS V14.01,2013-03-25 05:05:00,
2013-03-25 01:06:00,28.2,26.4,29.63,NNE,22,8.8,15.3,93,0.00,,,0.00,VWS V14.01,2013-03-25 05:06:00,
2013-03-25 01:07:00,30.5,19.2,29.64,NE,53,13.6,15.7,63,0.00,,,0.00,VWS V14.01,2013-03-25 05:07:00,
2013-03-25 01:08:00,30.4,19.0,29.64,NNE,31,11.1,13.6,62,0.00,,,0.00,VWS V14.01,2013-03-25 05:08:00,
2013-03-25 01:09:00,30.3,19.1,29.64,ENE,63,12.4,12.4,63,0.00,,,0.00,VWS V14.01,2013-03-25 05:09:00,
2013-03-25 01:10:00,28.5,26.5,29.62,NNE,31,15.3,15.3,92,0.00,,,0.00,VWS V14.01,2013-03-25 05:10:00,
2013-03-25 01:11:00,30.4,19.3,29.64,NE,48,12.6,12.8,63,0.00,,,0.00,VWS V14.01,2013-03-25 05:11:00,
2013-03-25 01:12:00,28.4,26.2,29.62,NE,40,9.3,15.3,91,0.00,,,0.00,VWS V14.01,2013-03-25 05:12:00,
2013-03-25 01:13:00,30.5,19.1,29.64,ENE,67,13.1,14.3,62,0.00,,,0.00,VWS V14.01,2013-03-25 05:13:00,
2013-03-25 01:14:00,28.5,26.3,29.62,East,80,12.6,15.3,91,0.00,,,0.00,VWS V14.01,2013-03-25 05:14:00,
2013-03-25 01:15:00,28.6,26.2,29.62,NNE,31,11.7,15.3,91,0.00,,,0.00,VWS V14.01,2013-03-25 05:15:00,
2013-03-25 01:16:00,28.6,26.0,29.62,ENE,59,11.2,15.3,90,0.00,,,0.00,VWS V14.01,2013-03-25 05:16:00,
2013-03-25 01:17:00,28.5,25.9,29.62,NE,48,8.3,15.3,90,0.00,,,0.00,VWS V14.01,2013-03-25 05:17:00,
2013-03-25 01:18:00,30.3,19.4,29.64,NE,37,8.3,11.1,63,0.00,,,0.00,VWS V14.01,2013-03-25 05:18:00,
2013-03-25 01:19:00,28.6,25.9,29.61,NE,39,12.4,15.3,89,0.00,,,0.00,VWS V14.01,2013-03-25 05:19:00,
2013-03-25 01:20:00,28.5,25.8,29.61,NE,39,9.9,15.3,89,0.00,,,0.00,VWS V14.01,2013-03-25 05:20:00,
2013-03-25 01:21:00,30.3,19.2,29.64,East,79,10.9,10.9,63,0.00,,,0.00,VWS V14.01,2013-03-25 05:21:00,
2013-03-25 01:22:00,28.6,25.8,29.62,NE,52,11.2,15.3,89,0.00,,,0.00,VWS V14.01,2013-03-25 05:22:00,
2013-03-25 01:23:00,28.6,25.7,29.61,ENE,60,9.5,15.3,89,0.00,,,0.00,VWS V14.01,2013-03-25 05:23:00,
2013-03-25 01:24:00,30.3,19.7,29.64,NNE,19,5.7,11.2,64,0.00,,,0.00,VWS V14.01,2013-03-25 05:24:00,
2013-03-25 01:25:00,28.5,25.7,29.61,NNE,33,9.0,15.3,89,0.00,,,0.00,VWS V14.01,2013-03-25 05:25:00,
2013-03-25 01:26:00,30.3,19.7,29.64,NE,49,10.0,10.9,64,0.00,,,0.00,VWS V14.01,2013-03-25 05:26:00,
2013-03-25 01:27:00,28.5,25.7,29.62,NE,56,9.5,15.3,89,0.00,,,0.00,VWS V14.01,2013-03-25 05:27:00,
2013-03-25 01:28:00,30.2,19.8,29.64,NNE,19,6.8,9.2,65,0.00,,,0.00,VWS V14.01,2013-03-25 05:28:00,
2013-03-25 01:29:00,30.2,19.4,29.64,NE,47,10.4,10.4,64,0.00,,,0.00,VWS V14.01,2013-03-25 05:29:00,
2013-03-25 01:30:00,28.4,25.9,29.61,NE,38,10.2,15.3,90,0.00,,,0.00,VWS V14.01,2013-03-25 05:30:00,
2013-03-25 01:31:00,28.4,25.9,29.61,NE,38,10.2,15.3,90,0.00,,,0.00,VWS V14.01,2013-03-25 05:31:00,
2013-03-25 01:32:00,30.2,20.1,29.64,NE,53,9.3,12.4,66,0.00,,,0.00,VWS V14.01,2013-03-25 05:32:00,
2013-03-25 01:33:00,28.4,26.0,29.62,NE,42,7.6,15.3,91,0.00,,,0.00,VWS V14.01,2013-03-25 05:33:00,
2013-03-25 01:34:00,28.4,26.0,29.62,NE,43,8.0,15.3,91,0.00,,,0.00,VWS V14.01,2013-03-25 05:34:00,
2013-03-25 01:35:00,30.1,20.3,29.64,ENE,73,8.7,11.1,66,0.00,,,0.00,VWS V14.01,2013-03-25 05:35:00,
2013-03-25 01:36:00,30.3,20.2,29.64,ENE,73,12.4,17.7,66,0.00,,,0.00,VWS V14.01,2013-03-25 05:36:00,
2013-03-25 01:37:00,28.3,26.1,29.62,NNE,23,14.3,15.3,91,0.00,,,0.00,VWS V14.01,2013-03-25 05:37:00,
2013-03-25 01:38:00,28.4,26.1,29.62,NE,39,14.8,15.3,91,0.00,,,0.00,VWS V14.01,2013-03-25 05:38:00,
2013-03-25 01:39:00,28.3,24.7,29.61,NE,35,10.5,15.3,86,0.00,,,0.00,VWS V14.01,2013-03-25 05:39:00,
2013-03-25 01:40:00,30.2,20.5,29.64,NNE,32,11.2,12.1,67,0.00,,,0.00,VWS V14.01,2013-03-25 05:40:00,
2013-03-25 01:41:00,30.0,20.3,29.64,NE,45,12.9,12.9,67,0.00,,,0.00,VWS V14.01,2013-03-25 05:41:00,
2013-03-25 01:42:00,28.3,26.0,29.61,NE,48,9.7,15.3,91,0.00,,,0.00,VWS V14.01,2013-03-25 05:42:00,
2013-03-25 01:43:00,28.2,26.1,29.62,NE,51,4.4,15.3,92,0.00,,,0.00,VWS V14.01,2013-03-25 05:43:00,
2013-03-25 01:44:00,28.3,26.3,29.61,NE,50,9.3,15.3,92,0.00,,,0.00,VWS V14.01,2013-03-25 05:44:00,
2013-03-25 01:45:00,28.4,26.5,29.61,NE,53,15.5,15.5,92,0.00,,,0.00,VWS V14.01,2013-03-25 05:45:00,
2013-03-25 01:46:00,30.0,20.8,29.64,NNE,28,14.5,14.5,68,0.00,,,0.00,VWS V14.01,2013-03-25 05:46:00,
2013-03-25 01:47:00,29.9,21.0,29.64,NE,36,11.1,14.5,69,0.00,,,0.00,VWS V14.01,2013-03-25 05:47:00,
2013-03-25 01:48:00,28.4,26.4,29.60,NE,42,11.2,15.5,92,0.00,,,0.00,VWS V14.01,2013-03-25 05:48:00,
2013-03-25 01:49:00,28.4,26.4,29.61,NNE,29,7.6,15.5,92,0.00,,,0.00,VWS V14.01,2013-03-25 05:49:00,
2013-03-25 01:50:00,28.4,26.4,29.60,NE,40,11.2,15.5,92,0.00,,,0.00,VWS V14.01,2013-03-25 05:50:00,
2013-03-25 01:51:00,28.4,26.3,29.61,ENE,58,9.5,15.5,92,0.00,,,0.00,VWS V14.01,2013-03-25 05:51:00,
2013-03-25 01:52:00,29.7,21.5,29.64,NE,43,10.7,14.6,71,0.00,,,0.00,VWS V14.01,2013-03-25 05:52:00,
2013-03-25 01:53:00,29.6,21.6,29.68,NE,46,9.3,10.7,72,0.00,,,0.00,VWS V14.01,2013-03-25 05:53:00,
2013-03-25 01:54:00,29.7,22.0,29.64,ENE,65,10.5,10.5,73,0.00,,,0.00,VWS V14.01,2013-03-25 05:54:00,
2013-03-25 01:55:00,28.5,26.2,29.61,NNE,26,10.7,15.5,91,0.00,,,0.00,VWS V14.01,2013-03-25 05:55:00,
2013-03-25 01:56:00,28.5,26.2,29.61,NE,48,8.8,15.5,91,0.00,,,0.00,VWS V14.01,2013-03-25 05:56:00,
2013-03-25 01:57:00,29.4,22.1,29.64,ENE,60,8.7,14.3,74,0.00,,,0.00,VWS V14.01,2013-03-25 05:57:00,
2013-03-25 01:58:00,29.4,22.2,29.64,NNE,29,8.7,11.7,74,0.00,,,0.00,VWS V14.01,2013-03-25 05:58:00,
2013-03-25 01:59:00,29.3,22.5,29.64,NE,50,7.3,9.5,75,0.00,,,0.00,VWS V14.01,2013-03-25 05:59:00,
2013-03-25 02:00:00,28.5,26.3,29.61,NNE,27,10.4,15.5,92,0.00,,,0.00,VWS V14.01,2013-03-25 06:00:00,
2013-03-25 02:01:00,28.3,26.3,29.62,ENE,70,14.0,17.9,92,0.00,,,0.00,VWS V14.01,2013-03-25 06:01:00,
2013-03-25 02:04:00,28.4,26.3,29.61,NE,47,10.0,10.0,92,0.00,,,0.00,VWS V14.01,2013-03-25 06:04:00,
2013-03-25 02:05:00,28.3,26.2,29.61,ENE,67,8.3,10.0,92,0.00,,,0.00,VWS V14.01,2013-03-25 06:05:00,
2013-03-25 02:06:00,28.5,26.4,29.61,NE,50,11.2,11.2,92,0.00,,,0.00,VWS V14.01,2013-03-25 06:06:00,
2013-03-25 02:10:00,28.4,26.3,29.61,NE,41,10.0,12.1,92,0.00,,,0.00,VWS V14.01,2013-03-25 06:10:00,
2013-03-25 02:12:00,28.3,26.2,29.61,NE,47,7.3,12.1,92,0.00,,,0.00,VWS V14.01,2013-03-25 06:12:00,
2013-03-25 02:15:00,28.3,26.3,29.61,NE,35,6.3,12.1,92,0.00,,,0.00,VWS V14.01,2013-03-25 06:15:00,
2013-03-25 02:17:00,28.4,26.4,29.61,NE,53,9.2,12.1,92,0.00,,,0.00,VWS V14.01,2013-03-25 06:17:00,
2013-03-25 02:18:00,28.4,26.5,29.61,NE,53,8.3,12.1,92,0.00,,,0.00,VWS V14.01,2013-03-25 06:18:00,
2013-03-25 02:19:00,28.4,26.5,29.61,NE,53,8.3,12.1,92,0.00,,,0.00,VWS V14.01,2013-03-25 06:19:00,
2013-03-25 02:22:00,28.4,26.4,29.60,NNE,23,8.0,12.1,92,0.00,,,0.00,VWS V14.01,2013-03-25 06:22:00,
2013-03-25 02:23:00,28.4,26.4,29.61,NNE,28,8.3,12.1,92,0.00,,,0.00,VWS V14.01,2013-03-25 06:23:00,
2013-03-25 02:26:00,28.5,26.5,29.61,NE,36,9.9,12.1,92,0.00,,,0.00,VWS V14.01,2013-03-25 06:26:00,
2013-03-25 02:28:00,28.4,26.4,29.60,NE,37,12.1,12.1,92,0.00,,,0.00,VWS V14.01,2013-03-25 06:28:00,
2013-03-25 02:31:00,28.3,26.3,29.60,NE,36,7.8,12.1,92,0.00,,,0.00,VWS V14.01,2013-03-25 06:31:00,
2013-03-25 02:32:00,28.3,26.4,29.60,NE,44,10.2,14.8,92,0.00,,,0.00,VWS V14.01,2013-03-25 06:32:00,
2013-03-25 02:35:00,28.3,26.5,29.59,NNE,13,8.3,14.8,93,0.00,,,0.00,VWS V14.01,2013-03-25 06:35:00,
2013-03-25 02:37:00,28.2,26.4,29.60,NE,37,10.2,14.8,93,0.00,,,0.00,VWS V14.01,2013-03-25 06:37:00,
2013-03-25 02:38:00,28.1,26.5,29.63,NE,50,8.7,14.8,93,0.00,,,0.00,VWS V14.01,2013-03-25 06:38:00,
2013-03-25 02:41:00,28.1,26.6,29.60,NE,42,8.5,14.8,94,0.00,,,0.00,VWS V14.01,2013-03-25 06:41:00,
2013-03-25 02:42:00,28.2,26.8,29.59,NE,48,11.4,14.8,94,0.00,,,0.00,VWS V14.01,2013-03-25 06:42:00,
2013-03-25 02:43:00,28.3,26.9,29.60,NE,36,12.3,14.8,94,0.00,,,0.00,VWS V14.01,2013-03-25 06:43:00,
2013-03-25 02:44:00,28.2,26.6,29.60,NE,56,7.8,14.8,94,0.00,,,0.00,VWS V14.01,2013-03-25 06:44:00,
2013-03-25 02:47:00,28.3,26.7,29.59,North,4,8.8,14.8,94,0.00,,,0.00,VWS V14.01,2013-03-25 06:47:00,
2013-03-25 02:48:00,28.2,26.7,29.59,North,5,9.5,14.8,94,0.00,,,0.00,VWS V14.01,2013-03-25 06:48:00,
2013-03-25 02:49:00,28.0,26.6,29.59,NE,52,7.1,14.8,94,0.00,,,0.00,VWS V14.01,2013-03-25 06:49:00,
2013-03-25 02:53:00,28.3,26.9,29.60,NNE,29,8.8,14.8,94,0.00,,,0.00,VWS V14.01,2013-03-25 06:53:00,
2013-03-25 02:54:00,28.3,26.9,29.60,ENE,59,8.7,14.8,94,0.00,,,0.00,VWS V14.01,2013-03-25 06:54:00,
2013-03-25 02:55:00,28.4,26.9,29.59,NNE,30,8.1,14.8,94,0.00,,,0.00,VWS V14.01,2013-03-25 06:55:00,
2013-03-25 02:58:00,28.5,26.6,29.60,NE,52,6.4,14.8,92,0.00,,,0.00,VWS V14.01,2013-03-25 06:58:00,
2013-03-25 02:59:00,28.5,26.3,29.60,North,10,13.6,15.5,91,0.00,,,0.00,VWS V14.01,2013-03-25 06:59:00,
2013-03-25 03:00:00,28.6,26.3,29.59,NE,46,9.5,14.8,91,0.00,,,0.00,VWS V14.01,2013-03-25 07:00:00,
2013-03-25 03:04:00,28.6,24.6,29.60,NE,54,9.5,11.9,85,0.00,,,0.00,VWS V14.01,2013-03-25 07:04:00,
2013-03-25 03:05:00,28.6,25.9,29.60,NNE,31,10.0,11.9,90,0.00,,,0.00,VWS V14.01,2013-03-25 07:05:00,
2013-03-25 03:07:00,28.5,24.0,29.59,NNE,22,8.8,12.1,83,0.00,,,0.00,VWS V14.01,2013-03-25 07:07:00,
2013-03-25 03:08:00,28.4,25.8,29.60,NNE,16,10.0,12.8,90,0.00,,,0.00,VWS V14.01,2013-03-25 07:08:00,
2013-03-25 03:09:00,28.4,25.9,29.60,NE,36,11.6,12.8,90,0.00,,,0.00,VWS V14.01,2013-03-25 07:09:00,
2013-03-25 03:10:00,28.2,25.8,29.59,NE,43,9.9,12.8,90,0.00,,,0.00,VWS V14.01,2013-03-25 07:10:00,
2013-03-25 03:12:00,28.1,26.1,29.59,NE,39,7.5,12.8,92,0.00,,,0.00,VWS V14.01,2013-03-25 07:12:00,
2013-03-25 03:14:00,28.2,26.5,29.60,ENE,70,8.5,12.8,93,0.00,,,0.00,VWS V14.01,2013-03-25 07:14:00,
2013-03-25 03:16:00,28.3,26.5,29.60,NE,54,9.2,12.8,93,0.00,,,0.00,VWS V14.01,2013-03-25 07:16:00,
2013-03-25 03:17:00,28.2,26.4,29.60,NE,51,8.5,12.8,93,0.00,,,0.00,VWS V14.01,2013-03-25 07:17:00,
2013-03-25 03:20:00,28.0,26.4,29.60,NNE,27,6.3,12.8,94,0.00,,,0.00,VWS V14.01,2013-03-25 07:20:00,
2013-03-25 03:21:00,28.0,26.5,29.59,NE,36,8.8,12.8,94,0.00,,,0.00,VWS V14.01,2013-03-25 07:21:00,
2013-03-25 03:23:00,27.8,26.5,29.59,NE,35,9.5,12.9,95,0.00,,,0.00,VWS V14.01,2013-03-25 07:23:00,
2013-03-25 03:27:00,27.9,27.0,29.60,NE,44,8.7,13.8,97,0.00,,,0.00,VWS V14.01,2013-03-25 07:27:00,
2013-03-25 03:29:00,27.8,27.0,29.60,NE,49,8.3,13.8,96,0.00,,,0.00,VWS V14.01,2013-03-25 07:29:00,
2013-03-25 03:33:00,27.9,27.0,29.60,NE,47,7.8,13.8,96,0.00,,,0.00,VWS V14.01,2013-03-25 07:33:00,
2013-03-25 03:35:00,27.9,26.9,29.60,NNE,33,7.8,13.8,96,0.00,,,0.00,VWS V14.01,2013-03-25 07:35:00,
2013-03-25 03:37:00,28.0,27.0,29.59,NNE,33,7.1,13.8,96,0.00,,,0.00,VWS V14.01,2013-03-25 07:37:00,
2013-03-25 03:39:00,28.0,27.1,29.59,NNE,29,9.3,13.8,96,0.00,,,0.00,VWS V14.01,2013-03-25 07:39:00,
2013-03-25 03:40:00,28.1,27.1,29.59,NE,37,7.5,13.8,96,0.00,,,0.00,VWS V14.01,2013-03-25 07:40:00,
2013-03-25 03:41:00,28.0,27.0,29.59,NE,42,5.2,13.8,96,0.00,,,0.00,VWS V14.01,2013-03-25 07:41:00,
2013-03-25 03:43:00,28.2,27.1,29.59,NE,34,9.5,13.8,96,0.00,,,0.00,VWS V14.01,2013-03-25 07:43:00,
2013-03-25 03:44:00,28.2,27.0,29.59,NE,44,8.1,13.8,95,0.00,,,0.00,VWS V14.01,2013-03-25 07:44:00,
2013-03-25 03:46:00,28.2,27.0,29.59,NE,39,8.5,13.8,95,0.00,,,0.00,VWS V14.01,2013-03-25 07:46:00,
2013-03-25 03:47:00,28.3,27.0,29.59,NNE,21,9.0,13.8,95,0.00,,,0.00,VWS V14.01,2013-03-25 07:47:00,
2013-03-25 03:48:00,28.3,26.9,29.59,NNE,21,8.3,13.8,95,0.00,,,0.00,VWS V14.01,2013-03-25 07:48:00,
2013-03-25 03:51:00,28.3,26.8,29.59,NE,52,11.7,13.8,94,0.00,,,0.00,VWS V14.01,2013-03-25 07:51:00,
2013-03-25 03:52:00,28.2,26.6,29.59,NNE,31,9.7,13.8,94,0.00,,,0.00,VWS V14.01,2013-03-25 07:52:00,
2013-03-25 03:55:00,28.2,26.6,29.58,NE,49,9.7,13.8,94,0.00,,,0.00,VWS V14.01,2013-03-25 07:55:00,
2013-03-25 03:57:00,28.2,26.6,29.59,NE,34,9.3,13.8,94,0.00,,,0.00,VWS V14.01,2013-03-25 07:57:00,
2013-03-25 03:58:00,28.1,26.6,29.59,NNE,30,8.1,13.8,94,0.00,,,0.00,VWS V14.01,2013-03-25 07:58:00,
2013-03-25 03:59:00,28.1,26.6,29.59,NNE,28,8.3,13.8,94,0.00,,,0.00,VWS V14.01,2013-03-25 07:59:00,
2013-03-25 04:00:00,28.0,26.6,29.59,ENE,68,8.5,13.8,94,0.00,,,0.00,VWS V14.01,2013-03-25 08:00:00,
2013-03-25 04:02:00,28.2,26.8,29.59,NE,51,11.4,11.4,94,0.00,,,0.00,VWS V14.01,2013-03-25 08:02:00,
2013-03-25 04:03:00,28.1,26.6,29.58,NE,43,7.6,7.6,94,0.00,,,0.00,VWS V14.01,2013-03-25 08:03:00,
2013-03-25 04:05:00,28.2,26.7,29.58,NE,39,8.1,10.4,94,0.00,,,0.00,VWS V14.01,2013-03-25 08:05:00,
2013-03-25 04:08:00,28.4,26.7,29.59,NE,36,9.2,9.2,93,0.00,,,0.00,VWS V14.01,2013-03-25 08:08:00,
2013-03-25 04:09:00,28.3,26.6,29.59,NE,50,5.1,9.2,93,0.00,,,0.00,VWS V14.01,2013-03-25 08:09:00,
2013-03-25 04:11:00,28.4,26.5,29.58,NE,54,6.3,6.9,93,0.00,,,0.00,VWS V14.01,2013-03-25 08:11:00,
2013-03-25 04:12:00,28.5,26.6,29.58,NE,41,11.1,11.1,93,0.00,,,0.00,VWS V14.01,2013-03-25 08:12:00,
2013-03-25 04:14:00,28.5,26.5,29.59,ENE,64,12.6,12.6,92,0.00,,,0.00,VWS V14.01,2013-03-25 08:14:00,
2013-03-25 04:16:00,28.5,26.3,29.59,NE,40,7.6,9.7,91,0.00,,,0.00,VWS V14.01,2013-03-25 08:16:00,
2013-03-25 04:17:00,28.5,26.3,29.59,NE,54,9.0,10.0,91,0.00,,,0.00,VWS V14.01,2013-03-25 08:17:00,
2013-03-25 04:20:00,28.6,26.1,29.58,NE,39,10.9,12.1,90,0.00,,,0.00,VWS V14.01,2013-03-25 08:20:00,
2013-03-25 04:21:00,28.5,26.0,29.58,NE,54,6.6,8.0,90,0.00,,,0.00,VWS V14.01,2013-03-25 08:21:00,
2013-03-25 04:23:00,28.6,26.1,29.58,NE,52,10.9,10.9,90,0.00,,,0.00,VWS V14.01,2013-03-25 08:23:00,
2013-03-25 04:24:00,28.6,26.0,29.58,NE,49,6.4,10.9,90,0.00,,,0.00,VWS V14.01,2013-03-25 08:24:00,
2013-03-25 04:25:00,28.7,26.1,29.58,NNE,33,12.1,12.1,90,0.00,,,0.00,VWS V14.01,2013-03-25 08:25:00,
2013-03-25 04:28:00,28.8,26.0,29.58,NE,43,10.5,10.5,89,0.00,,,0.00,VWS V14.01,2013-03-25 08:28:00,
2013-03-25 04:29:00,28.7,25.9,29.58,NNE,30,11.4,11.4,89,0.00,,,0.00,VWS V14.01,2013-03-25 08:29:00,
2013-03-25 04:31:00,28.8,25.8,29.58,NNE,29,12.4,12.4,89,0.00,,,0.00,VWS V14.01,2013-03-25 08:31:00,
2013-03-25 04:32:00,28.7,25.5,29.58,NE,45,11.9,15.2,88,0.00,,,0.00,VWS V14.01,2013-03-25 08:32:00,
2013-03-25 04:33:00,28.8,25.6,29.58,NE,44,8.3,13.1,88,0.00,,,0.00,VWS V14.01,2013-03-25 08:33:00,
2013-03-25 04:35:00,28.8,25.5,29.58,NE,38,10.0,10.9,87,0.00,,,0.00,VWS V14.01,2013-03-25 08:35:00,
2013-03-25 04:37:00,28.6,25.3,29.58,ENE,59,8.8,10.2,87,0.00,,,0.00,VWS V14.01,2013-03-25 08:37:00,
2013-03-25 04:41:00,28.8,25.3,29.57,NE,39,9.5,9.5,87,0.00,,,0.00,VWS V14.01,2013-03-25 08:41:00,
2013-03-25 04:44:00,28.8,25.3,29.59,NNE,33,7.1,7.1,87,0.00,,,0.00,VWS V14.01,2013-03-25 08:44:00,
2013-03-25 04:45:00,28.8,25.2,29.58,NE,47,10.5,12.6,86,0.00,,,0.00,VWS V14.01,2013-03-25 08:45:00,
2013-03-25 04:47:00,28.8,25.1,29.58,NNE,22,7.3,7.3,86,0.00,,,0.00,VWS V14.01,2013-03-25 08:47:00,
2013-03-25 04:48:00,28.8,25.1,29.58,NNE,33,7.1,12.4,86,0.00,,,0.00,VWS V14.01,2013-03-25 08:48:00,
2013-03-25 04:49:00,28.9,25.1,29.57,NE,38,10.9,10.9,86,0.00,,,0.00,VWS V14.01,2013-03-25 08:49:00,
2013-03-25 04:52:00,29.0,25.0,29.58,NE,39,13.3,13.3,85,0.00,,,0.00,VWS V14.01,2013-03-25 08:52:00,
2013-03-25 04:53:00,29.0,24.9,29.58,NE,40,10.2,13.3,84,0.00,,,0.00,VWS V14.01,2013-03-25 08:53:00,
2013-03-25 04:54:00,29.0,24.8,29.58,NE,35,8.1,11.7,84,0.00,,,0.00,VWS V14.01,2013-03-25 08:54:00,
2013-03-25 04:57:00,28.8,24.8,29.57,NE,46,6.4,8.1,85,0.00,,,0.00,VWS V14.01,2013-03-25 08:57:00,
2013-03-25 04:58:00,28.1,26.7,29.59,NE,48,10.4,10.4,94,0.00,,,0.00,VWS V14.01,2013-03-25 08:58:00,
2013-03-25 04:59:00,29.1,25.1,29.57,NE,47,12.1,12.1,85,0.00,,,0.00,VWS V14.01,2013-03-25 08:59:00,
2013-03-25 05:00:00,28.1,26.7,29.58,ENE,68,12.6,12.6,94,0.00,,,0.00,VWS V14.01,2013-03-25 09:00:00,
2013-03-25 05:02:00,28.9,24.6,29.57,NNE,13,8.0,11.4,84,0.00,,,0.00,VWS V14.01,2013-03-25 09:02:00,
2013-03-25 05:03:00,28.1,26.6,29.58,NE,43,7.6,12.6,94,0.00,,,0.00,VWS V14.01,2013-03-25 09:03:00,
2013-03-25 05:04:00,28.9,24.7,29.57,NE,51,6.6,11.4,84,0.00,,,0.00,VWS V14.01,2013-03-25 09:04:00,
2013-03-25 05:05:00,28.9,24.7,29.57,NE,51,6.6,11.4,84,0.00,,,0.00,VWS V14.01,2013-03-25 09:05:00,
2013-03-25 05:06:00,28.4,26.8,29.59,NE,37,10.2,10.2,94,0.00,,,0.00,VWS V14.01,2013-03-25 09:06:00,
2013-03-25 05:07:00,28.2,26.6,29.58,NNE,20,8.8,10.9,94,0.00,,,0.00,VWS V14.01,2013-03-25 09:07:00,
2013-03-25 05:08:00,29.0,24.8,29.57,NE,54,8.3,11.4,84,0.00,,,0.00,VWS V14.01,2013-03-25 09:08:00,
2013-03-25 05:09:00,28.4,26.6,29.59,NNE,28,6.8,9.2,93,0.00,,,0.00,VWS V14.01,2013-03-25 09:09:00,
2013-03-25 05:10:00,28.9,24.8,29.58,NE,43,7.1,11.4,84,0.00,,,0.00,VWS V14.01,2013-03-25 09:10:00,
2013-03-25 05:11:00,28.9,24.8,29.58,NE,35,8.5,11.4,84,0.00,,,0.00,VWS V14.01,2013-03-25 09:11:00,
2013-03-25 05:12:00,28.5,26.6,29.58,NE,35,12.1,12.1,92,0.00,,,0.00,VWS V14.01,2013-03-25 09:12:00,
2013-03-25 05:13:00,28.5,26.5,29.61,NE,47,10.2,12.1,92,0.00,,,0.00,VWS V14.01,2013-03-25 09:13:00,
2013-03-25 05:14:00,28.5,26.5,29.59,ENE,64,12.6,12.6,92,0.00,,,0.00,VWS V14.01,2013-03-25 09:14:00,
2013-03-25 05:15:00,28.4,26.3,29.58,NE,38,7.3,12.6,92,0.00,,,0.00,VWS V14.01,2013-03-25 09:15:00,
2013-03-25 05:16:00,29.0,24.8,29.57,NNE,30,8.5,12.3,84,0.00,,,0.00,VWS V14.01,2013-03-25 09:16:00,
2013-03-25 05:17:00,29.1,24.8,29.57,NE,48,13.1,13.1,84,0.00,,,0.00,VWS V14.01,2013-03-25 09:17:00,
2013-03-25 05:18:00,28.9,24.6,29.57,NE,56,12.1,13.1,84,0.00,,,0.00,VWS V14.01,2013-03-25 09:18:00,
2013-03-25 05:19:00,28.6,26.2,29.58,NE,47,12.1,12.1,90,0.00,,,0.00,VWS V14.01,2013-03-25 09:19:00,
2013-03-25 05:20:00,29.0,24.7,29.57,NE,35,9.0,13.1,84,0.00,,,0.00,VWS V14.01,2013-03-25 09:20:00,
2013-03-25 05:21:00,28.6,26.1,29.58,NE,52,6.4,8.0,90,0.00,,,0.00,VWS V14.01,2013-03-25 09:21:00,
2013-03-25 05:22:00,28.6,26.1,29.58,NE,55,9.0,9.3,90,0.00,,,0.00,VWS V14.01,2013-03-25 09:22:00,
2013-03-25 05:23:00,28.6,26.1,29.58,NE,52,10.9,10.9,90,0.00,,,0.00,VWS V14.01,2013-03-25 09:23:00,
2013-03-25 05:24:00,29.3,25.0,29.57,NNE,22,10.5,13.1,84,0.00,,,0.00,VWS V14.01,2013-03-25 09:24:00,
2013-03-25 05:25:00,28.7,26.1,29.58,NNE,33,12.1,12.1,90,0.00,,,0.00,VWS V14.01,2013-03-25 09:25:00,
2013-03-25 05:26:00,29.3,24.8,29.57,NNE,22,11.4,13.1,83,0.00,,,0.00,VWS V14.01,2013-03-25 09:26:00,
2013-03-25 05:27:00,29.3,24.7,29.61,NE,34,8.0,13.1,83,0.00,,,0.00,VWS V14.01,2013-03-25 09:27:00,
2013-03-25 05:28:00,28.8,26.0,29.58,NE,43,10.5,10.5,89,0.00,,,0.00,VWS V14.01,2013-03-25 09:28:00,
2013-03-25 05:29:00,28.7,25.8,29.58,NE,48,10.5,11.4,89,0.00,,,0.00,VWS V14.01,2013-03-25 09:29:00,
2013-03-25 05:30:00,28.8,25.8,29.58,NNE,23,8.3,10.5,89,0.00,,,0.00,VWS V14.01,2013-03-25 09:30:00,
2013-03-25 05:31:00,29.3,24.5,29.57,NE,51,11.9,13.1,82,0.00,,,0.00,VWS V14.01,2013-03-25 09:31:00,
2013-03-25 05:32:00,29.3,24.5,29.57,NE,51,11.9,13.1,82,0.00,,,0.00,VWS V14.01,2013-03-25 09:32:00,
2013-03-25 05:33:00,28.8,25.6,29.58,NE,44,8.3,13.1,88,0.00,,,0.00,VWS V14.01,2013-03-25 09:33:00,
2013-03-25 05:34:00,29.4,24.2,29.56,NE,44,17.2,17.2,80,0.00,,,0.00,VWS V14.01,2013-03-25 09:34:00,
2013-03-25 05:35:00,28.8,25.5,29.58,NE,38,10.0,10.9,87,0.00,,,0.00,VWS V14.01,2013-03-25 09:35:00,
2013-03-25 05:36:00,28.8,25.5,29.58,NE,42,10.2,10.2,87,0.00,,,0.00,VWS V14.01,2013-03-25 09:36:00,
2013-03-25 05:37:00,29.4,24.1,29.57,NE,44,8.7,17.2,80,0.00,,,0.00,VWS V14.01,2013-03-25 09:37:00,
2013-03-25 05:38:00,29.4,24.1,29.57,NE,36,8.7,17.2,80,0.00,,,0.00,VWS V14.01,2013-03-25 09:38:00,
2013-03-25 05:39:00,28.8,25.5,29.58,NE,51,9.7,11.1,87,0.00,,,0.00,VWS V14.01,2013-03-25 09:39:00,
2013-03-25 05:40:00,29.3,23.8,29.57,ENE,61,11.9,17.2,80,0.00,,,0.00,VWS V14.01,2013-03-25 09:40:00,
2013-03-25 05:41:00,28.7,25.2,29.57,NE,37,8.7,9.5,87,0.00,,,0.00,VWS V14.01,2013-03-25 09:41:00,
2013-03-25 05:42:00,28.8,25.3,29.59,NE,46,9.3,9.7,87,0.00,,,0.00,VWS V14.01,2013-03-25 09:42:00,
2013-03-25 05:43:00,29.2,24.0,29.56,NE,36,7.8,17.2,81,0.00,,,0.00,VWS V14.01,2013-03-25 09:43:00,
2013-03-25 05:44:00,28.8,25.3,29.58,NE,53,6.8,7.1,87,0.00,,,0.00,VWS V14.01,2013-03-25 09:44:00,
2013-03-25 05:45:00,29.5,24.1,29.57,NE,44,17.2,17.2,80,0.00,,,0.00,VWS V14.01,2013-03-25 09:45:00,
2013-03-25 05:46:00,28.9,25.2,29.58,NE,35,8.7,10.5,86,0.00,,,0.00,VWS V14.01,2013-03-25 09:46:00,
2013-03-25 05:47:00,29.4,24.0,29.57,NE,34,10.7,17.2,80,0.00,,,0.00,VWS V14.01,2013-03-25 09:47:00,
2013-03-25 05:48:00,28.8,25.1,29.58,NNE,33,7.1,12.4,86,0.00,,,0.00,VWS V14.01,2013-03-25 09:48:00,
2013-03-25 05:49:00,29.4,23.9,29.57,North,11,7.3,17.2,80,0.00,,,0.00,VWS V14.01,2013-03-25 09:49:00,
2013-03-25 05:50:00,28.9,25.1,29.57,NE,45,9.9,10.9,85,0.00,,,0.00,VWS V14.01,2013-03-25 09:50:00,
2013-03-25 05:51:00,29.2,23.8,29.57,NE,34,6.6,17.2,80,0.00,,,0.00,VWS V14.01,2013-03-25 09:51:00,
2013-03-25 05:52:00,29.2,23.8,29.57,NE,38,8.7,17.2,80,0.00,,,0.00,VWS V14.01,2013-03-25 09:52:00,
2013-03-25 05:53:00,29.0,24.9,29.58,NE,38,11.7,13.3,84,0.00,,,0.00,VWS V14.01,2013-03-25 09:53:00,
2013-03-25 05:54:00,29.2,23.9,29.57,NNE,27,8.1,17.2,80,0.00,,,0.00,VWS V14.01,2013-03-25 09:54:00,
2013-03-25 05:55:00,29.0,24.9,29.57,NE,41,9.0,9.0,84,0.00,,,0.00,VWS V14.01,2013-03-25 09:55:00,
2013-03-25 05:56:00,28.8,24.7,29.57,NE,48,8.1,10.2,84,0.00,,,0.00,VWS V14.01,2013-03-25 09:56:00,
2013-03-25 05:57:00,29.3,23.8,29.57,NE,34,8.7,17.2,80,0.00,,,0.00,VWS V14.01,2013-03-25 09:57:00,
2013-03-25 05:58:00,29.4,23.9,29.57,NNE,19,7.8,17.2,80,0.00,,,0.00,VWS V14.01,2013-03-25 09:58:00,
2013-03-25 05:59:00,29.2,23.8,29.57,NNE,18,5.6,17.2,80,0.00,,,0.00,VWS V14.01,2013-03-25 09:59:00,
2013-03-25 06:00:00,29.4,23.9,29.56,NE,35,10.2,17.2,80,0.00,,,0.00,VWS V14.01,2013-03-25 10:00:00,
2013-03-25 06:01:00,29.5,24.0,29.57,ENE,59,9.7,17.2,80,0.00,,,0.00,VWS V14.01,2013-03-25 10:01:00,
2013-03-25 06:02:00,29.3,23.8,29.57,ENE,65,7.6,9.7,80,0.00,,,0.00,VWS V14.01,2013-03-25 10:02:00,
2013-03-25 06:03:00,29.5,23.9,29.57,NNE,29,11.6,11.6,79,0.00,,,0.00,VWS V14.01,2013-03-25 10:03:00,
2013-03-25 06:04:00,29.5,23.8,29.57,NE,44,9.9,11.6,79,0.00,,,0.00,VWS V14.01,2013-03-25 10:04:00,
2013-03-25 06:05:00,29.5,23.7,29.61,NE,46,10.2,10.2,79,0.00,,,0.00,VWS V14.01,2013-03-25 10:05:00,
2013-03-25 06:06:00,29.4,23.7,29.58,NE,34,9.9,9.9,79,0.00,,,0.00,VWS V14.01,2013-03-25 10:06:00,
2013-03-25 06:07:00,29.4,23.6,29.58,NE,35,10.4,12.4,79,0.00,,,0.00,VWS V14.01,2013-03-25 10:07:00,
2013-03-25 06:08:00,29.4,23.7,29.57,NE,34,10.2,10.4,79,0.00,,,0.00,VWS V14.01,2013-03-25 10:08:00,
2013-03-25 06:09:00,29.3,23.6,29.57,NE,43,5.6,10.2,79,0.00,,,0.00,VWS V14.01,2013-03-25 10:09:00,
2013-03-25 06:10:00,29.4,23.6,29.57,NNE,32,6.6,9.2,79,0.00,,,0.00,VWS V14.01,2013-03-25 10:10:00,
2013-03-25 06:11:00,29.4,23.6,29.58,NNE,30,8.5,10.9,79,0.00,,,0.00,VWS V14.01,2013-03-25 10:11:00,
2013-03-25 06:12:00,29.5,20.5,29.57,NE,38,12.1,12.1,69,0.00,,,0.00,VWS V14.01,2013-03-25 10:12:00,
2013-03-25 06:13:00,29.4,23.4,29.58,NE,37,9.7,10.7,78,0.00,,,0.00,VWS V14.01,2013-03-25 10:13:00,
2013-03-25 06:14:00,29.5,22.6,29.58,NNE,24,6.8,11.1,75,0.00,,,0.00,VWS V14.01,2013-03-25 10:14:00,
2013-03-25 06:15:00,29.5,23.5,29.57,NE,48,8.0,8.0,78,0.00,,,0.00,VWS V14.01,2013-03-25 10:15:00,
2013-03-25 06:16:00,29.4,23.4,29.58,NNE,22,8.5,8.5,78,0.00,,,0.00,VWS V14.01,2013-03-25 10:16:00,
2013-03-25 06:17:00,29.6,23.5,29.57,NE,36,9.3,9.3,78,0.00,,,0.00,VWS V14.01,2013-03-25 10:17:00,
2013-03-25 06:18:00,29.4,23.2,29.58,NNE,13,7.8,9.5,77,0.00,,,0.00,VWS V14.01,2013-03-25 10:18:00,
2013-03-25 06:19:00,29.5,23.4,29.58,NE,34,10.4,10.4,78,0.00,,,0.00,VWS V14.01,2013-03-25 10:19:00,
2013-03-25 06:20:00,29.5,23.4,29.58,NNE,22,6.1,10.4,78,0.00,,,0.00,VWS V14.01,2013-03-25 10:20:00,
2013-03-25 06:21:00,29.5,23.4,29.57,North,10,6.6,8.7,78,0.00,,,0.00,VWS V14.01,2013-03-25 10:21:00,
2013-03-25 06:22:00,29.4,23.4,29.57,NE,56,7.8,7.8,78,0.00,,,0.00,VWS V14.01,2013-03-25 10:22:00,
2013-03-25 06:23:00,29.5,23.5,29.57,NE,41,8.5,8.5,78,0.00,,,0.00,VWS V14.01,2013-03-25 10:23:00,
2013-03-25 06:24:00,29.6,23.4,29.58,NNE,27,9.5,9.9,78,0.00,,,0.00,VWS V14.01,2013-03-25 10:24:00,
2013-03-25 06:25:00,29.4,23.2,29.57,NE,34,10.4,10.4,77,0.00,,,0.00,VWS V14.01,2013-03-25 10:25:00,
2013-03-25 06:26:00,29.5,23.2,29.58,NE,41,9.9,10.4,77,0.00,,,0.00,VWS V14.01,2013-03-25 10:26:00,
2013-03-25 06:27:00,29.5,23.2,29.58,NE,41,9.9,10.4,77,0.00,,,0.00,VWS V14.01,2013-03-25 10:27:00,
2013-03-25 06:28:00,29.6,23.1,29.57,NE,40,11.1,11.1,76,0.00,,,0.00,VWS V14.01,2013-03-25 10:28:00,
2013-03-25 06:29:00,29.5,23.1,29.57,NE,56,7.5,7.5,77,0.00,,,0.00,VWS V14.01,2013-03-25 10:29:00,
2013-03-25 06:30:00,29.5,23.1,29.57,NE,55,8.7,8.7,77,0.00,,,0.00,VWS V14.01,2013-03-25 10:30:00,
2013-03-25 06:31:00,29.6,23.2,29.57,NE,38,8.7,8.7,77,0.00,,,0.00,VWS V14.01,2013-03-25 10:31:00,
2013-03-25 06:32:00,29.6,23.1,29.56,NE,47,12.1,12.1,76,0.00,,,0.00,VWS V14.01,2013-03-25 10:32:00,
2013-03-25 06:33:00,29.7,23.1,29.57,NNE,19,9.5,10.7,76,0.00,,,0.00,VWS V14.01,2013-03-25 10:33:00,
2013-03-25 06:34:00,29.5,22.9,29.57,NE,45,9.2,9.2,76,0.00,,,0.00,VWS V14.01,2013-03-25 10:34:00,
2013-03-25 06:35:00,29.6,23.0,29.57,NNE,23,7.8,9.2,76,0.00,,,0.00,VWS V14.01,2013-03-25 10:35:00,
2013-03-25 06:36:00,29.7,23.1,29.57,NE,49,9.7,9.7,76,0.00,,,0.00,VWS V14.01,2013-03-25 10:36:00,
2013-03-25 06:37:00,29.7,23.0,29.57,NE,45,7.8,9.7,76,0.00,,,0.00,VWS V14.01,2013-03-25 10:37:00,
2013-03-25 06:38:00,29.5,22.9,29.58,NNW,345,9.2,9.2,76,0.00,,,0.00,VWS V14.01,2013-03-25 10:38:00,
2013-03-25 06:39:00,29.8,23.0,29.57,NE,40,7.8,9.2,75,0.00,,,0.00,VWS V14.01,2013-03-25 10:39:00,
2013-03-25 06:40:00,29.7,22.9,29.57,NE,35,9.9,9.9,75,0.00,,,0.00,VWS V14.01,2013-03-25 10:40:00,
2013-03-25 06:41:00,29.8,22.9,29.59,NNE,30,13.8,13.8,75,0.00,,,0.00,VWS V14.01,2013-03-25 10:41:00,
2013-03-25 06:42:00,30.0,22.9,29.57,NE,43,10.7,13.8,75,0.00,,,0.00,VWS V14.01,2013-03-25 10:42:00,
2013-03-25 06:43:00,29.8,22.7,29.57,NE,34,8.8,10.7,74,0.00,,,0.00,VWS V14.01,2013-03-25 10:43:00,
2013-03-25 06:44:00,29.8,22.7,29.58,NNE,29,10.0,10.0,75,0.00,,,0.00,VWS V14.01,2013-03-25 10:44:00,
2013-03-25 06:45:00,29.7,22.5,29.57,NNE,31,9.5,10.0,74,0.00,,,0.00,VWS V14.01,2013-03-25 10:45:00,
2013-03-25 06:46:00,29.9,22.6,29.58,NE,53,10.0,10.0,74,0.00,,,0.00,VWS V14.01,2013-03-25 10:46:00,
2013-03-25 06:47:00,29.9,22.7,29.57,NNE,23,9.0,10.0,74,0.00,,,0.00,VWS V14.01,2013-03-25 10:47:00,
2013-03-25 06:48:00,29.8,22.6,29.57,NNE,19,8.1,9.0,74,0.00,,,0.00,VWS V14.01,2013-03-25 10:48:00,
2013-03-25 06:49:00,29.8,22.6,29.62,NE,45,7.6,8.1,74,0.00,,,0.00,VWS V14.01,2013-03-25 10:49:00,
2013-03-25 06:50:00,29.8,22.7,29.59,NE,41,6.4,7.6,74,0.00,,,0.00,VWS V14.01,2013-03-25 10:50:00,
2013-03-25 06:51:00,29.8,22.9,29.57,NNE,29,8.8,8.8,75,0.00,,,0.00,VWS V14.01,2013-03-25 10:51:00,
2013-03-25 06:52:00,29.8,22.8,29.57,NE,46,7.3,8.0,75,0.00,,,0.00,VWS V14.01,2013-03-25 10:52:00,
2013-03-25 06:53:00,29.8,22.9,29.58,NE,42,9.5,9.5,75,0.00,,,0.00,VWS V14.01,2013-03-25 10:53:00,
2013-03-25 06:54:00,29.9,23.0,29.58,NE,36,13.1,13.1,75,0.00,,,0.00,VWS V14.01,2013-03-25 10:54:00,
2013-03-25 06:55:00,29.9,22.8,29.59,NE,41,15.0,15.0,75,0.00,,,0.00,VWS V14.01,2013-03-25 10:55:00,
2013-03-25 06:56:00,29.7,22.8,29.58,NNE,24,9.7,15.0,75,0.00,,,0.00,VWS V14.01,2013-03-25 10:56:00,
2013-03-25 06:57:00,29.7,23.0,29.58,NE,46,9.0,9.7,76,0.00,,,0.00,VWS V14.01,2013-03-25 10:57:00,
2013-03-25 06:58:00,29.6,23.0,29.58,NNE,33,10.0,10.0,76,0.00,,,0.00,VWS V14.01,2013-03-25 10:58:00,
2013-03-25 06:59:00,29.5,23.3,29.58,NNE,26,8.0,12.6,77,0.00,,,0.00,VWS V14.01,2013-03-25 10:59:00,
2013-03-25 07:00:00,29.5,23.6,29.58,NE,46,11.9,11.9,78,0.00,,,0.00,VWS V14.01,2013-03-25 11:00:00,
2013-03-25 07:02:00,29.4,23.8,29.58,NE,40,9.3,9.3,79,0.00,,,0.00,VWS V14.01,2013-03-25 11:02:00,
2013-03-25 07:03:00,29.4,24.1,29.58,NNE,31,8.3,9.3,80,0.00,,,0.00,VWS V14.01,2013-03-25 11:03:00,
2013-03-25 07:06:00,29.2,24.1,29.58,NE,34,7.3,7.3,81,0.00,,,0.00,VWS V14.01,2013-03-25 11:06:00,
2013-03-25 07:08:00,29.2,24.6,29.58,NNE,33,7.6,10.5,83,0.00,,,0.00,VWS V14.01,2013-03-25 11:08:00,
2013-03-25 07:09:00,29.3,24.7,29.58,ENE,63,7.6,7.6,83,0.00,,,0.00,VWS V14.01,2013-03-25 11:09:00,
2013-03-25 07:11:00,29.3,24.8,29.58,NE,53,6.6,7.5,83,0.00,,,0.00,VWS V14.01,2013-03-25 11:11:00,
2013-03-25 07:13:00,29.4,24.7,29.58,NE,40,6.8,6.8,82,0.00,,,0.00,VWS V14.01,2013-03-25 11:13:00,
2013-03-25 07:14:00,29.4,24.8,29.58,North,11,8.0,8.0,83,0.00,,,0.00,VWS V14.01,2013-03-25 11:14:00,
2013-03-25 07:17:00,29.5,24.7,29.59,NNE,27,11.7,11.7,82,0.00,,,0.00,VWS V14.01,2013-03-25 11:17:00,
2013-03-25 07:19:00,29.4,24.4,29.59,NE,39,4.9,10.2,82,0.00,,,0.00,VWS V14.01,2013-03-25 11:19:00,
2013-03-25 07:21:00,29.5,24.7,29.59,NE,47,7.1,8.0,82,0.00,,,0.00,VWS V14.01,2013-03-25 11:21:00,
2013-03-25 07:22:00,29.3,24.6,29.59,NNE,25,6.4,7.1,82,0.00,,,0.00,VWS V14.01,2013-03-25 11:22:00,
2013-03-25 07:23:00,29.5,24.9,29.58,NE,51,8.3,8.3,83,0.00,,,0.00,VWS V14.01,2013-03-25 11:23:00,
2013-03-25 07:24:00,29.6,24.7,29.58,NNE,29,11.4,11.4,82,0.00,,,0.00,VWS V14.01,2013-03-25 11:24:00,
2013-03-25 07:27:00,29.5,24.5,29.59,NNE,31,9.3,9.3,81,0.00,,,0.00,VWS V14.01,2013-03-25 11:27:00,
2013-03-25 07:28:00,29.5,24.6,29.59,NNE,26,7.6,7.6,82,0.00,,,0.00,VWS V14.01,2013-03-25 11:28:00,
2013-03-25 07:30:00,29.6,24.6,29.60,NE,42,6.9,10.7,81,0.00,,,0.00,VWS V14.01,2013-03-25 11:30:00,
2013-03-25 07:33:00,29.6,24.5,29.59,NE,40,5.9,11.1,81,0.00,,,0.00,VWS V14.01,2013-03-25 11:33:00,
2013-03-25 07:35:00,29.7,24.5,29.59,NNE,31,13.6,13.6,81,0.00,,,0.00,VWS V14.01,2013-03-25 11:35:00,
2013-03-25 07:36:00,29.7,24.5,29.59,NNE,31,13.6,13.6,81,0.00,,,0.00,VWS V14.01,2013-03-25 11:36:00,
2013-03-25 07:39:00,29.6,24.2,29.59,NE,34,8.5,9.9,80,0.00,,,0.00,VWS V14.01,2013-03-25 11:39:00,
2013-03-25 07:40:00,29.4,24.1,29.59,NNE,27,5.7,8.5,80,0.00,,,0.00,VWS V14.01,2013-03-25 11:40:00,
2013-03-25 07:42:00,29.4,24.3,29.60,NE,49,7.3,7.5,81,0.00,,,0.00,VWS V14.01,2013-03-25 11:42:00,
2013-03-25 07:44:00,29.5,24.5,29.60,NE,50,8.8,8.8,81,0.00,,,0.00,VWS V14.01,2013-03-25 11:44:00,
2013-03-25 07:46:00,29.4,24.5,29.60,NE,36,6.9,7.6,82,0.00,,,0.00,VWS V14.01,2013-03-25 11:46:00,
2013-03-25 07:48:00,29.5,24.5,29.60,NNE,30,7.3,10.4,81,0.00,,,0.00,VWS V14.01,2013-03-25 11:48:00,
2013-03-25 07:50:00,29.5,24.6,29.61,NNE,17,7.3,8.7,82,0.00,,,0.00,VWS V14.01,2013-03-25 11:50:00,
2013-03-25 07:52:00,29.5,24.8,29.60,NE,50,11.2,11.2,82,0.00,,,0.00,VWS V14.01,2013-03-25 11:52:00,
2013-03-25 07:55:00,29.5,24.6,29.60,NE,38,7.8,11.7,82,0.00,,,0.00,VWS V14.01,2013-03-25 11:55:00,
2013-03-25 07:56:00,29.5,24.6,29.60,NNE,30,8.0,11.7,82,0.00,,,0.00,VWS V14.01,2013-03-25 11:56:00,
2013-03-25 07:58:00,29.5,24.6,29.60,NNE,18,7.1,9.2,82,0.00,,,0.00,VWS V14.01,2013-03-25 11:58:00,
2013-03-25 08:00:00,29.6,24.4,29.61,NNE,24,7.5,10.0,81,0.00,,,0.00,VWS V14.01,2013-03-25 12:00:00,
2013-03-25 08:01:00,29.5,24.4,29.61,North,8,8.8,10.0,81,0.00,,,0.00,VWS V14.01,2013-03-25 12:01:00,
2013-03-25 08:02:00,29.4,23.8,29.58,NE,53,10.7,10.7,79,0.00,,,0.00,VWS V14.01,2013-03-25 12:02:00,
2013-03-25 08:03:00,29.6,24.2,29.62,NNE,25,10.0,10.9,80,0.00,,,0.00,VWS V14.01,2013-03-25 12:03:00,
2013-03-25 08:04:00,29.4,24.1,29.58,NNE,31,8.3,9.3,80,0.00,,,0.00,VWS V14.01,2013-03-25 12:04:00,
2013-03-25 08:05:00,29.5,24.2,29.61,NNE,23,10.5,10.9,80,0.00,,,0.00,VWS V14.01,2013-03-25 12:05:00,
2013-03-25 08:06:00,29.5,24.2,29.60,NNE,27,6.8,10.9,80,0.00,,,0.00,VWS V14.01,2013-03-25 12:06:00,
2013-03-25 08:07:00,29.3,24.4,29.59,NNE,18,7.3,9.9,82,0.00,,,0.00,VWS V14.01,2013-03-25 12:07:00,
2013-03-25 08:08:00,29.5,24.5,29.64,NNE,32,8.8,10.9,81,0.00,,,0.00,VWS V14.01,2013-03-25 12:08:00,
2013-03-25 08:09:00,29.2,24.6,29.58,NNE,33,7.6,10.5,83,0.00,,,0.00,VWS V14.01,2013-03-25 12:09:00,
2013-03-25 08:10:00,29.5,24.6,29.61,NNE,29,8.5,10.9,82,0.00,,,0.00,VWS V14.01,2013-03-25 12:10:00,
2013-03-25 08:11:00,29.3,24.8,29.58,NE,56,7.5,8.5,83,0.00,,,0.00,VWS V14.01,2013-03-25 12:11:00,
2013-03-25 08:12:00,29.4,24.6,29.61,NNE,24,5.6,10.9,82,0.00,,,0.00,VWS V14.01,2013-03-25 12:12:00,
2013-03-25 08:13:00,29.3,24.7,29.59,NNE,22,7.5,10.2,83,0.00,,,0.00,VWS V14.01,2013-03-25 12:13:00,
2013-03-25 08:14:00,29.4,24.7,29.58,NE,40,6.8,8.5,82,0.00,,,0.00,VWS V14.01,2013-03-25 12:14:00,
2013-03-25 08:15:00,29.4,24.8,29.58,North,11,8.0,8.0,83,0.00,,,0.00,VWS V14.01,2013-03-25 12:15:00,
2013-03-25 08:16:00,29.3,24.9,29.61,NE,40,8.0,10.9,83,0.00,,,0.00,VWS V14.01,2013-03-25 12:16:00,
2013-03-25 08:17:00,29.4,25.0,29.61,NNE,26,6.9,10.9,84,0.00,,,0.00,VWS V14.01,2013-03-25 12:17:00,
2013-03-25 08:18:00,29.4,25.1,29.61,North,351,6.4,10.9,84,0.00,,,0.00,VWS V14.01,2013-03-25 12:18:00,
2013-03-25 08:19:00,29.4,24.5,29.59,NNE,28,10.2,11.7,82,0.00,,,0.00,VWS V14.01,2013-03-25 12:19:00,
2013-03-25 08:20:00,29.4,24.6,29.59,North,9,6.8,10.2,82,0.00,,,0.00,VWS V14.01,2013-03-25 12:20:00,
2013-03-25 08:21:00,29.5,25.1,29.62,NNE,20,6.6,10.9,83,0.00,,,0.00,VWS V14.01,2013-03-25 12:21:00,
2013-03-25 08:22:00,29.5,24.7,29.59,NE,47,7.1,8.0,82,0.00,,,0.00,VWS V14.01,2013-03-25 12:22:00,
2013-03-25 08:23:00,29.4,25.0,29.62,NE,36,8.3,11.1,84,0.00,,,0.00,VWS V14.01,2013-03-25 12:23:00,
2013-03-25 08:24:00,29.5,24.8,29.59,NE,37,10.0,10.0,82,0.00,,,0.00,VWS V14.01,2013-03-25 12:24:00,
2013-03-25 08:25:00,29.6,24.7,29.58,NNE,29,11.4,11.4,82,0.00,,,0.00,VWS V14.01,2013-03-25 12:25:00,
2013-03-25 08:26:00,29.5,25.2,29.61,North,4,6.8,11.1,84,0.00,,,0.00,VWS V14.01,2013-03-25 12:26:00,
2013-03-25 08:27:00,29.5,24.5,29.58,NE,37,6.4,8.3,81,0.00,,,0.00,VWS V14.01,2013-03-25 12:27:00,
2013-03-25 08:28:00,29.5,25.3,29.61,NNE,17,8.3,11.1,84,0.00,,,0.00,VWS V14.01,2013-03-25 12:28:00,
2013-03-25 08:29:00,29.5,24.6,29.59,NNE,26,7.6,7.6,82,0.00,,,0.00,VWS V14.01,2013-03-25 12:29:00,
2013-03-25 08:30:00,29.5,24.5,29.59,NE,47,10.7,10.7,81,0.00,,,0.00,VWS V14.01,2013-03-25 12:30:00,
2013-03-25 08:31:00,29.6,25.3,29.61,NNE,28,10.2,11.4,83,0.00,,,0.00,VWS V14.01,2013-03-25 12:31:00,
2013-03-25 08:32:00,29.6,25.1,29.61,NNE,17,9.2,11.4,83,0.00,,,0.00,VWS V14.01,2013-03-25 12:32:00,
2013-03-25 08:33:00,29.7,25.2,29.61,NE,39,8.7,11.4,83,0.00,,,0.00,VWS V14.01,2013-03-25 12:33:00,
2013-03-25 08:34:00,29.6,24.5,29.59,NE,40,5.9,11.1,81,0.00,,,0.00,VWS V14.01,2013-03-25 12:34:00,
2013-03-25 08:35:00,29.6,25.1,29.61,NNE,33,9.2,11.4,83,0.00,,,0.00,VWS V14.01,2013-03-25 12:35:00,
2013-03-25 08:36:00,29.7,24.5,29.59,NNE,31,13.6,13.6,81,0.00,,,0.00,VWS V14.01,2013-03-25 12:36:00,
2013-03-25 08:37:00,29.6,24.3,29.59,NE,48,9.2,13.6,80,0.00,,,0.00,VWS V14.01,2013-03-25 12:37:00,
2013-03-25 08:38:00,29.6,25.5,29.62,NNE,24,9.2,11.4,85,0.00,,,0.00,VWS V14.01,2013-03-25 12:38:00,
2013-03-25 08:39:00,29.7,25.7,29.62,NNE,13,6.3,11.4,85,0.00,,,0.00,VWS V14.01,2013-03-25 12:39:00,
2013-03-25 08:40:00,29.6,25.6,29.61,NNE,19,6.6,11.4,85,0.00,,,0.00,VWS V14.01,2013-03-25 12:40:00,
2013-03-25 08:41:00,29.4,24.1,29.59,NNE,27,5.7,8.5,80,0.00,,,0.00,VWS V14.01,2013-03-25 12:41:00,
2013-03-25 08:42:00,29.6,25.8,29.62,NNE,28,6.9,11.4,85,0.00,,,0.00,VWS V14.01,2013-03-25 12:42:00,
2013-03-25 08:43:00,29.5,24.4,29.60,NNE,27,6.9,7.5,81,0.00,,,0.00,VWS V14.01,2013-03-25 12:43:00,
2013-03-25 08:44:00,29.5,25.8,29.62,NNE,28,10.7,11.4,86,0.00,,,0.00,VWS V14.01,2013-03-25 12:44:00,
2013-03-25 08:45:00,29.5,25.9,29.62,North,360,8.8,11.4,86,0.00,,,0.00,VWS V14.01,2013-03-25 12:45:00,
2013-03-25 08:46:00,29.4,23.0,29.60,NE,54,7.3,8.8,77,0.00,,,0.00,VWS V14.01,2013-03-25 12:46:00,
2013-03-25 08:47:00,29.5,25.8,29.62,NNE,27,8.3,11.4,86,0.00,,,0.00,VWS V14.01,2013-03-25 12:47:00,
2013-03-25 08:48:00,29.5,24.5,29.60,NNE,30,7.3,10.4,81,0.00,,,0.00,VWS V14.01,2013-03-25 12:48:00,
2013-03-25 08:49:00,29.5,24.5,29.60,NE,35,6.9,8.1,82,0.00,,,0.00,VWS V14.01,2013-03-25 12:49:00,
2013-03-25 08:50:00,29.5,24.6,29.60,NE,46,8.7,8.7,82,0.00,,,0.00,VWS V14.01,2013-03-25 12:50:00,
2013-03-25 08:51:00,29.4,24.6,29.61,North,2,5.7,8.7,82,0.00,,,0.00,VWS V14.01,2013-03-25 12:51:00,
2013-03-25 08:52:00,29.5,24.8,29.60,NE,50,11.2,11.2,82,0.00,,,0.00,VWS V14.01,2013-03-25 12:52:00,
2013-03-25 08:53:00,29.6,26.1,29.62,NE,35,7.3,12.4,86,0.00,,,0.00,VWS V14.01,2013-03-25 12:53:00,
2013-03-25 08:54:00,29.8,26.3,29.62,NNW,341,4.9,12.4,87,0.00,,,0.00,VWS V14.01,2013-03-25 12:54:00,
2013-03-25 08:55:00,29.5,24.8,29.59,NNE,30,11.7,11.7,82,0.00,,,0.00,VWS V14.01,2013-03-25 12:55:00,
2013-03-25 08:56:00,29.5,24.6,29.60,NNE,30,8.0,11.7,82,0.00,,,0.00,VWS V14.01,2013-03-25 12:56:00,
2013-03-25 08:57:00,29.5,24.5,29.60,NE,39,7.6,8.0,82,0.00,,,0.00,VWS V14.01,2013-03-25 12:57:00,
2013-03-25 08:58:00,29.5,24.5,29.61,NNE,21,6.8,7.6,82,0.00,,,0.00,VWS V14.01,2013-03-25 12:58:00,
2013-03-25 08:59:00,29.5,24.6,29.60,NNE,18,7.1,9.2,82,0.00,,,0.00,VWS V14.01,2013-03-25 12:59:00,
2013-03-25 09:00:00,29.6,22.6,29.61,NNE,32,10.0,10.0,75,0.00,,,0.00,VWS V14.01,2013-03-25 13:00:00,
2013-03-25 11:06:00,32.0,18.1,29.64,NNE,12,10.5,10.5,56,0.00,,,0.00,VWS V14.01,2013-03-25 15:06:00,
2013-03-25 11:07:00,31.8,23.1,29.64,NE,40,10.9,15.0,70,0.00,,,0.00,VWS V14.01,2013-03-25 15:07:00,
2013-03-25 11:08:00,31.8,23.2,29.64,NE,39,10.9,15.0,70,0.00,,,0.00,VWS V14.01,2013-03-25 15:08:00,
2013-03-25 11:09:00,31.9,23.3,29.64,NE,42,12.4,12.4,70,0.00,,,0.00,VWS V14.01,2013-03-25 15:09:00,
2013-03-25 11:10:00,31.9,23.4,29.64,NE,37,13.8,13.8,71,0.00,,,0.00,VWS V14.01,2013-03-25 15:10:00,
2013-03-25 11:11:00,32.1,23.5,29.64,NE,56,13.6,15.3,70,0.00,,,0.00,VWS V14.01,2013-03-25 15:11:00,
2013-03-25 11:12:00,32.0,23.4,29.64,NE,51,8.7,13.6,70,0.00,,,0.00,VWS V14.01,2013-03-25 15:12:00,
2013-03-25 11:13:00,32.6,23.8,29.64,NNW,348,9.3,9.3,70,0.00,,,0.00,VWS V14.01,2013-03-25 15:13:00,
2013-03-25 11:14:00,32.0,23.2,29.64,NNE,20,12.8,12.8,70,0.00,,,0.00,VWS V14.01,2013-03-25 15:14:00,
2013-03-25 11:15:00,32.1,23.5,29.64,NE,48,10.2,12.8,70,0.00,,,0.00,VWS V14.01,2013-03-25 15:15:00,
2013-03-25 11:16:00,32.2,23.3,29.64,NE,42,11.2,11.2,69,0.00,,,0.00,VWS V14.01,2013-03-25 15:16:00,
2013-03-25 11:17:00,32.7,24.2,29.65,NE,39,7.1,8.1,71,0.00,,,0.00,VWS V14.01,2013-03-25 15:17:00,
2013-03-25 11:18:00,32.4,23.7,29.65,NE,45,10.0,10.0,70,0.00,,,0.00,VWS V14.01,2013-03-25 15:18:00,
2013-03-25 11:19:00,32.2,22.8,29.65,NE,42,12.4,12.4,68,0.00,,,0.00,VWS V14.01,2013-03-25 15:19:00,
2013-03-25 11:20:00,32.6,23.2,29.65,NNE,33,10.5,12.4,68,0.00,,,0.00,VWS V14.01,2013-03-25 15:20:00,
2013-03-25 11:21:00,32.6,23.2,29.64,NE,36,6.9,10.5,68,0.00,,,0.00,VWS V14.01,2013-03-25 15:21:00,
2013-03-25 11:22:00,32.4,22.7,29.64,NE,46,8.3,12.9,67,0.00,,,0.00,VWS V14.01,2013-03-25 15:22:00,
2013-03-25 11:23:00,32.2,22.2,29.68,NNE,21,14.0,14.0,66,0.00,,,0.00,VWS V14.01,2013-03-25 15:23:00,
2013-03-25 11:24:00,32.7,23.1,29.65,North,4,9.2,14.0,67,0.00,,,0.00,VWS V14.01,2013-03-25 15:24:00,
2013-03-25 11:25:00,32.3,22.2,29.64,NE,35,12.6,12.6,66,0.00,,,0.00,VWS V14.01,2013-03-25 15:25:00,
2013-03-25 11:26:00,32.7,22.9,29.65,NE,42,7.3,12.6,67,0.00,,,0.00,VWS V14.01,2013-03-25 15:26:00,
2013-03-25 11:27:00,32.5,22.5,29.65,NE,49,15.2,15.2,66,0.00,,,0.00,VWS V14.01,2013-03-25 15:27:00,
2013-03-25 11:28:00,32.8,22.3,29.65,NW,320,9.3,15.2,65,0.00,,,0.00,VWS V14.01,2013-03-25 15:28:00,
2013-03-25 11:29:00,32.5,22.3,29.65,North,6,9.5,15.0,66,0.00,,,0.00,VWS V14.01,2013-03-25 15:29:00,
2013-03-25 11:30:00,32.4,22.0,29.65,NE,36,12.6,15.0,65,0.00,,,0.00,VWS V14.01,2013-03-25 15:30:00,
2013-03-25 11:31:00,32.7,22.8,29.65,NNE,23,7.5,12.6,66,0.00,,,0.00,VWS V14.01,2013-03-25 15:31:00,
2013-03-25 11:32:00,32.4,22.4,29.65,NE,42,12.4,12.4,66,0.00,,,0.00,VWS V14.01,2013-03-25 15:32:00,
2013-03-25 11:33:00,32.4,22.6,29.65,NNE,31,11.7,12.4,67,0.00,,,0.00,VWS V14.01,2013-03-25 15:33:00,
2013-03-25 11:34:00,32.5,22.1,29.65,NNE,24,16.0,16.0,65,0.00,,,0.00,VWS V14.01,2013-03-25 15:34:00,
2013-03-25 11:35:00,32.4,21.9,29.65,NE,45,15.5,16.0,65,0.00,,,0.00,VWS V14.01,2013-03-25 15:35:00,
2013-03-25 11:36:00,32.8,22.3,29.65,North,352,10.0,15.5,65,0.00,,,0.00,VWS V14.01,2013-03-25 15:36:00,
2013-03-25 11:37:00,32.7,22.3,29.68,NNE,28,8.5,10.0,65,0.00,,,0.00,VWS V14.01,2013-03-25 15:37:00,
2013-03-25 11:38:00,32.5,21.8,29.65,NE,41,14.5,14.5,64,0.00,,,0.00,VWS V14.01,2013-03-25 15:38:00,
2013-03-25 11:39:00,32.9,22.3,29.65,NNE,28,9.7,14.5,65,0.00,,,0.00,VWS V14.01,2013-03-25 15:39:00,
2013-03-25 11:40:00,32.6,21.6,29.64,NE,43,12.3,12.3,64,0.00,,,0.00,VWS V14.01,2013-03-25 15:40:00,
2013-03-25 11:41:00,32.9,22.1,29.64,NNE,33,10.0,13.4,64,0.00,,,0.00,VWS V14.01,2013-03-25 15:41:00,
2013-03-25 11:42:00,32.9,21.8,29.65,NE,41,15.3,15.3,63,0.00,,,0.00,VWS V14.01,2013-03-25 15:42:00,
2013-03-25 11:43:00,32.9,21.8,29.64,NNE,29,9.0,9.0,63,0.00,,,0.00,VWS V14.01,2013-03-25 15:43:00,
2013-03-25 11:44:00,32.7,21.1,29.65,NE,34,10.9,11.9,62,0.00,,,0.00,VWS V14.01,2013-03-25 15:44:00,
2013-03-25 11:45:00,32.9,21.6,29.66,NE,41,11.7,11.7,63,0.00,,,0.00,VWS V14.01,2013-03-25 15:45:00,
2013-03-25 11:46:00,32.8,21.2,29.65,NNE,26,11.9,11.9,62,0.00,,,0.00,VWS V14.01,2013-03-25 15:46:00,
2013-03-25 11:47:00,32.9,21.1,29.65,NE,38,11.7,11.9,62,0.00,,,0.00,VWS V14.01,2013-03-25 15:47:00,
2013-03-25 11:48:00,33.0,21.3,29.65,NNE,33,10.0,10.9,62,0.00,,,0.00,VWS V14.01,2013-03-25 15:48:00,
2013-03-25 11:49:00,32.8,21.1,29.65,NE,48,12.1,12.1,62,0.00,,,0.00,VWS V14.01,2013-03-25 15:49:00,
2013-03-25 11:50:00,33.4,22.0,29.65,NNE,25,9.7,13.6,63,0.00,,,0.00,VWS V14.01,2013-03-25 15:50:00,
2013-03-25 11:51:00,33.5,21.8,29.65,North,6,7.8,13.3,62,0.00,,,0.00,VWS V14.01,2013-03-25 15:51:00,
2013-03-25 11:52:00,33.0,21.6,29.65,NNE,28,12.3,12.3,62,0.00,,,0.00,VWS V14.01,2013-03-25 15:52:00,
2013-03-25 11:53:00,33.1,21.2,29.65,NE,44,11.9,12.3,61,0.00,,,0.00,VWS V14.01,2013-03-25 15:53:00,
2013-03-25 11:54:00,33.3,21.9,29.65,North,8,7.6,11.1,63,0.00,,,0.00,VWS V14.01,2013-03-25 15:54:00,
2013-03-25 11:55:00,33.3,21.7,29.65,NNE,14,10.4,11.7,62,0.00,,,0.00,VWS V14.01,2013-03-25 15:55:00,
2013-03-25 11:56:00,33.1,21.2,29.65,NNE,28,12.8,12.8,61,0.00,,,0.00,VWS V14.01,2013-03-25 15:56:00,
2013-03-25 11:57:00,33.7,22.5,29.65,NNE,30,6.3,10.2,63,0.00,,,0.00,VWS V14.01,2013-03-25 15:57:00,
2013-03-25 11:58:00,33.8,22.8,29.68,NNE,24,8.3,8.3,64,0.00,,,0.00,VWS V14.01,2013-03-25 15:58:00,
2013-03-25 11:59:00,32.9,18.9,29.65,NNE,20,12.4,13.6,56,0.00,,,0.00,VWS V14.01,2013-03-25 15:59:00,
2013-03-25 12:00:00,33.2,21.5,29.65,North,5,9.3,12.4,62,0.00,,,0.00,VWS V14.01,2013-03-25 16:00:00,
2013-03-25 12:01:00,33.3,21.9,29.65,NNE,27,10.4,10.4,62,0.00,,,0.00,VWS V14.01,2013-03-25 16:01:00,
2013-03-25 12:02:00,33.5,21.7,29.65,NE,38,8.0,11.4,62,0.00,,,0.00,VWS V14.01,2013-03-25 16:02:00,
2013-03-25 12:03:00,33.5,21.8,29.65,NNE,19,8.8,9.5,62,0.00,,,0.00,VWS V14.01,2013-03-25 16:03:00,
2013-03-25 12:04:00,33.3,21.7,29.65,NNE,26,9.0,13.8,62,0.00,,,0.00,VWS V14.01,2013-03-25 16:04:00,
2013-03-25 12:05:00,33.2,21.6,29.65,NNE,27,10.2,10.2,62,0.00,,,0.00,VWS V14.01,2013-03-25 16:05:00,
2013-03-25 12:06:00,33.2,21.4,29.65,NNE,29,13.8,13.8,61,0.00,,,0.00,VWS V14.01,2013-03-25 16:06:00,
2013-03-25 12:07:00,33.4,21.5,29.65,NNE,31,9.9,13.8,61,0.00,,,0.00,VWS V14.01,2013-03-25 16:07:00,
2013-03-25 12:08:00,33.3,21.2,29.65,NNE,18,7.5,9.9,61,0.00,,,0.00,VWS V14.01,2013-03-25 16:08:00,
2013-03-25 12:09:00,33.5,21.4,29.65,NNE,15,8.7,10.9,61,0.00,,,0.00,VWS V14.01,2013-03-25 16:09:00,
2013-03-25 12:10:00,33.5,21.6,29.65,NNE,32,9.3,9.3,61,0.00,,,0.00,VWS V14.01,2013-03-25 16:10:00,
2013-03-25 12:11:00,33.6,21.7,29.65,NNE,24,11.2,11.2,61,0.00,,,0.00,VWS V14.01,2013-03-25 16:11:00,
2013-03-25 12:12:00,33.7,21.8,29.64,NNE,25,8.5,11.2,61,0.00,,,0.00,VWS V14.01,2013-03-25 16:12:00,
2013-03-25 12:13:00,33.8,22.2,29.65,NE,47,7.8,8.5,62,0.00,,,0.00,VWS V14.01,2013-03-25 16:13:00,
2013-03-25 12:14:00,33.8,21.7,29.65,NE,35,8.8,9.9,61,0.00,,,0.00,VWS V14.01,2013-03-25 16:14:00,
2013-03-25 12:15:00,33.3,20.9,29.65,NE,52,9.7,14.3,60,0.00,,,0.00,VWS V14.01,2013-03-25 16:15:00,
2013-03-25 12:16:00,33.5,20.8,29.65,NE,51,9.5,9.7,59,0.00,,,0.00,VWS V14.01,2013-03-25 16:16:00,
2013-03-25 12:17:00,33.7,21.2,29.65,NE,49,11.6,11.6,60,0.00,,,0.00,VWS V14.01,2013-03-25 16:17:00,
2013-03-25 12:18:00,34.0,21.8,29.65,NE,39,8.1,11.6,61,0.00,,,0.00,VWS V14.01,2013-03-25 16:18:00,
2013-03-25 12:19:00,33.7,21.3,29.65,North,0,11.2,12.6,60,0.00,,,0.00,VWS V14.01,2013-03-25 16:19:00,
2013-03-25 12:20:00,33.9,21.5,29.69,NNE,15,10.7,11.2,60,0.00,,,0.00,VWS V14.01,2013-03-25 16:20:00,
2013-03-25 12:21:00,33.4,20.6,29.65,NE,43,13.6,18.6,59,0.00,,,0.00,VWS V14.01,2013-03-25 16:21:00,
2013-03-25 12:22:00,33.7,21.5,29.65,NNE,16,8.5,15.0,60,0.00,,,0.00,VWS V14.01,2013-03-25 16:22:00,
2013-03-25 12:23:00,33.8,21.2,29.65,NE,50,12.3,13.4,60,0.00,,,0.00,VWS V14.01,2013-03-25 16:23:00,
2013-03-25 12:24:00,33.7,21.4,29.65,NNE,21,10.4,10.4,60,0.00,,,0.00,VWS V14.01,2013-03-25 16:24:00,
2013-03-25 12:25:00,34.1,21.9,29.65,NE,34,9.7,10.4,61,0.00,,,0.00,VWS V14.01,2013-03-25 16:25:00,
2013-03-25 12:26:00,33.8,21.1,29.65,NE,50,12.3,12.3,59,0.00,,,0.00,VWS V14.01,2013-03-25 16:26:00,
2013-03-25 12:27:00,33.8,20.9,29.65,NE,53,12.9,12.9,59,0.00,,,0.00,VWS V14.01,2013-03-25 16:27:00,
2013-03-25 12:28:00,34.3,22.0,29.65,NNE,14,8.1,11.6,60,0.00,,,0.00,VWS V14.01,2013-03-25 16:28:00,
2013-03-25 12:29:00,33.5,20.7,29.65,NNE,29,11.6,11.6,59,0.00,,,0.00,VWS V14.01,2013-03-25 16:29:00,
2013-03-25 12:30:00,33.7,21.2,29.65,NE,49,12.9,12.9,60,0.00,,,0.00,VWS V14.01,2013-03-25 16:30:00,
2013-03-25 12:31:00,34.1,22.0,29.66,NE,42,10.2,10.2,61,0.00,,,0.00,VWS V14.01,2013-03-25 16:31:00,
2013-03-25 12:32:00,33.7,21.4,29.66,NE,50,11.9,11.9,60,0.00,,,0.00,VWS V14.01,2013-03-25 16:32:00,
2013-03-25 12:33:00,34.5,22.6,29.66,NNE,20,8.5,9.5,61,0.00,,,0.00,VWS V14.01,2013-03-25 16:33:00,
2013-03-25 12:34:00,33.7,21.3,29.65,NNE,33,11.1,11.1,60,0.00,,,0.00,VWS V14.01,2013-03-25 16:34:00,
2013-03-25 12:35:00,34.0,21.3,29.65,NNE,26,11.7,11.7,59,0.00,,,0.00,VWS V14.01,2013-03-25 16:35:00,
2013-03-25 12:36:00,34.1,21.4,29.65,NE,40,10.2,11.7,59,0.00,,,0.00,VWS V14.01,2013-03-25 16:36:00,
2013-03-25 12:37:00,33.8,21.1,29.65,NNE,32,13.3,13.3,59,0.00,,,0.00,VWS V14.01,2013-03-25 16:37:00,
2013-03-25 12:38:00,34.0,21.5,29.65,NE,45,9.3,13.3,60,0.00,,,0.00,VWS V14.01,2013-03-25 16:38:00,
2013-03-25 12:39:00,34.4,22.0,29.65,NNE,23,11.4,13.4,60,0.00,,,0.00,VWS V14.01,2013-03-25 16:39:00,
2013-03-25 12:40:00,34.1,21.6,29.65,NE,43,10.0,11.4,60,0.00,,,0.00,VWS V14.01,2013-03-25 16:40:00,
2013-03-25 12:41:00,34.0,21.0,29.65,NE,36,13.8,13.8,59,0.00,,,0.00,VWS V14.01,2013-03-25 16:41:00,
2013-03-25 12:42:00,34.4,21.4,29.66,NNE,12,10.5,10.7,58,0.00,,,0.00,VWS V14.01,2013-03-25 16:42:00,
2013-03-25 12:43:00,34.1,20.9,29.65,ENE,64,10.7,10.7,58,0.00,,,0.00,VWS V14.01,2013-03-25 16:43:00,
2013-03-25 12:44:00,33.7,20.4,29.65,NNE,31,11.7,11.7,58,0.00,,,0.00,VWS V14.01,2013-03-25 16:44:00,
2013-03-25 12:45:00,34.5,21.3,29.66,NE,39,10.9,14.6,58,0.00,,,0.00,VWS V14.01,2013-03-25 16:45:00,
2013-03-25 12:46:00,34.2,20.9,29.65,North,9,14.1,14.6,58,0.00,,,0.00,VWS V14.01,2013-03-25 16:46:00,
2013-03-25 12:47:00,34.1,20.4,29.65,NNE,32,9.9,14.1,57,0.00,,,0.00,VWS V14.01,2013-03-25 16:47:00,
2013-03-25 12:48:00,34.6,21.2,29.66,NNE,28,8.7,11.4,58,0.00,,,0.00,VWS V14.01,2013-03-25 16:48:00,
2013-03-25 12:49:00,34.7,21.3,29.65,NNE,22,7.5,14.0,58,0.00,,,0.00,VWS V14.01,2013-03-25 16:49:00,
2013-03-25 12:50:00,34.6,21.6,29.66,NNE,18,10.4,11.7,59,0.00,,,0.00,VWS V14.01,2013-03-25 16:50:00,
2013-03-25 12:51:00,34.4,21.1,29.66,NE,34,9.5,10.4,58,0.00,,,0.00,VWS V14.01,2013-03-25 16:51:00,
2013-03-25 12:52:00,34.4,21.2,29.65,NNE,14,11.4,11.4,58,0.00,,,0.00,VWS V14.01,2013-03-25 16:52:00,
2013-03-25 12:53:00,34.5,20.6,29.65,NNE,25,9.0,11.4,56,0.00,,,0.00,VWS V14.01,2013-03-25 16:53:00,
2013-03-25 12:54:00,34.7,21.3,29.66,NE,41,10.5,10.5,58,0.00,,,0.00,VWS V14.01,2013-03-25 16:54:00,
2013-03-25 12:55:00,34.7,21.6,29.66,NE,38,8.7,12.8,58,0.00,,,0.00,VWS V14.01,2013-03-25 16:55:00,
2013-03-25 12:56:00,34.7,21.2,29.66,ENE,72,8.7,9.7,57,0.00,,,0.00,VWS V14.01,2013-03-25 16:56:00,
2013-03-25 12:57:00,34.8,21.2,29.65,NE,35,9.5,11.6,57,0.00,,,0.00,VWS V14.01,2013-03-25 16:57:00,
2013-03-25 12:58:00,34.5,20.7,29.65,NNE,30,11.7,11.7,57,0.00,,,0.00,VWS V14.01,2013-03-25 16:58:00,
2013-03-25 12:59:00,34.8,20.8,29.65,NNE,16,10.9,11.7,56,0.00,,,0.00,VWS V14.01,2013-03-25 16:59:00,
2013-03-25 13:00:00,34.8,21.4,29.65,NE,55,9.3,9.3,58,0.00,,,0.00,VWS V14.01,2013-03-25 17:00:00,
2013-03-25 13:03:00,34.2,20.4,29.66,NE,36,13.6,13.6,56,0.00,,,0.00,VWS V14.01,2013-03-25 17:03:00,
2013-03-25 13:04:00,34.4,21.2,29.65,North,9,9.7,13.6,58,0.00,,,0.00,VWS V14.01,2013-03-25 17:04:00,
2013-03-25 13:05:00,34.5,21.1,29.65,ENE,78,8.3,9.7,58,0.00,,,0.00,VWS V14.01,2013-03-25 17:05:00,
2013-03-25 13:06:00,34.5,21.1,29.65,ENE,78,8.3,9.7,58,0.00,,,0.00,VWS V14.01,2013-03-25 17:06:00,
2013-03-25 13:09:00,34.5,21.2,29.66,NNE,32,14.8,14.8,58,0.00,,,0.00,VWS V14.01,2013-03-25 17:09:00,
2013-03-25 13:11:00,34.5,21.4,29.66,NNE,25,15.0,15.0,58,0.00,,,0.00,VWS V14.01,2013-03-25 17:11:00,
2013-03-25 13:12:00,34.5,21.6,29.66,NE,53,8.8,8.8,59,0.00,,,0.00,VWS V14.01,2013-03-25 17:12:00,
2013-03-25 13:15:00,34.9,21.9,29.66,NE,43,10.9,10.9,59,0.00,,,0.00,VWS V14.01,2013-03-25 17:15:00,
2013-03-25 13:16:00,34.6,21.3,29.66,NNE,14,10.7,10.7,58,0.00,,,0.00,VWS V14.01,2013-03-25 17:16:00,
2013-03-25 13:17:00,34.6,21.2,29.66,NNE,25,7.5,12.4,57,0.00,,,0.00,VWS V14.01,2013-03-25 17:17:00,
2013-03-25 13:18:00,35.0,21.9,29.66,NE,41,9.7,9.7,59,0.00,,,0.00,VWS V14.01,2013-03-25 17:18:00,
2013-03-25 13:20:00,34.8,21.4,29.66,NE,40,10.5,10.5,58,0.00,,,0.00,VWS V14.01,2013-03-25 17:20:00,
2013-03-25 13:22:00,34.8,21.4,29.66,NNE,16,8.8,8.8,58,0.00,,,0.00,VWS V14.01,2013-03-25 17:22:00,
2013-03-25 13:23:00,34.7,20.1,29.66,North,5,10.7,11.2,55,0.00,,,0.00,VWS V14.01,2013-03-25 17:23:00,
2013-03-25 13:24:00,34.9,22.0,29.66,North,11,7.6,13.6,59,0.00,,,0.00,VWS V14.01,2013-03-25 17:24:00,
2013-03-25 13:27:00,35.2,22.3,29.66,NE,38,8.1,9.2,59,0.00,,,0.00,VWS V14.01,2013-03-25 17:27:00,
2013-03-25 13:28:00,34.9,21.7,29.66,North,8,7.8,8.1,58,0.00,,,0.00,VWS V14.01,2013-03-25 17:28:00,
2013-03-25 13:29:00,34.9,21.7,29.66,NE,35,10.0,10.0,58,0.00,,,0.00,VWS V14.01,2013-03-25 17:29:00,
2013-03-25 13:34:00,35.6,20.9,29.66,NE,37,3.9,7.5,55,0.00,,,0.00,VWS V14.01,2013-03-25 17:34:00,
2013-03-25 13:35:00,34.8,21.1,29.67,NE,35,10.4,10.4,57,0.00,,,0.00,VWS V14.01,2013-03-25 17:35:00,
2013-03-25 13:37:00,34.6,20.7,29.67,NNE,14,10.2,10.7,56,0.00,,,0.00,VWS V14.01,2013-03-25 17:37:00,
2013-03-25 13:39:00,35.2,21.5,29.66,NNE,13,5.7,9.9,57,0.00,,,0.00,VWS V14.01,2013-03-25 17:39:00,
2013-03-25 13:40:00,34.8,21.1,29.66,NNE,32,8.3,8.3,57,0.00,,,0.00,VWS V14.01,2013-03-25 17:40:00,
2013-03-25 13:44:00,34.8,20.8,29.66,ENE,57,9.7,16.2,56,0.00,,,0.00,VWS V14.01,2013-03-25 17:44:00,
2013-03-25 13:45:00,34.9,20.8,29.66,North,3,9.5,12.4,56,0.00,,,0.00,VWS V14.01,2013-03-25 17:45:00,
2013-03-25 13:46:00,34.7,20.6,29.66,NNE,16,12.6,13.6,56,0.00,,,0.00,VWS V14.01,2013-03-25 17:46:00,
2013-03-25 13:48:00,35.2,21.6,29.66,North,3,5.4,5.4,57,0.00,,,0.00,VWS V14.01,2013-03-25 17:48:00,
2013-03-25 13:50:00,34.7,21.1,29.67,NNE,27,12.3,12.3,57,0.00,,,0.00,VWS V14.01,2013-03-25 17:50:00,
2013-03-25 13:52:00,35.0,21.4,29.67,NNE,20,6.6,12.9,57,0.00,,,0.00,VWS V14.01,2013-03-25 17:52:00,
2013-03-25 13:55:00,35.0,19.0,29.67,North,351,9.0,9.0,52,0.00,,,0.00,VWS V14.01,2013-03-25 17:55:00,
2013-03-25 13:56:00,35.0,19.0,29.67,North,351,9.0,9.0,52,0.00,,,0.00,VWS V14.01,2013-03-25 17:56:00,
2013-03-25 13:58:00,34.5,19.1,29.67,North,8,15.5,15.5,53,0.00,,,0.00,VWS V14.01,2013-03-25 17:58:00,
2013-03-25 14:00:00,35.0,21.4,29.67,North,7,10.5,11.4,57,0.00,,,0.00,VWS V14.01,2013-03-25 18:00:00,
2013-03-25 14:01:00,34.8,20.5,29.67,NE,41,14.5,14.5,56,0.00,,,0.00,VWS V14.01,2013-03-25 18:01:00,
2013-03-25 14:02:00,34.9,18.6,29.67,NE,44,12.6,14.5,51,0.00,,,0.00,VWS V14.01,2013-03-25 18:02:00,
2013-03-25 14:03:00,34.5,21.2,29.66,ENE,58,7.5,8.5,58,0.00,,,0.00,VWS V14.01,2013-03-25 18:03:00,
2013-03-25 14:04:00,34.2,20.4,29.66,NE,36,13.6,13.6,56,0.00,,,0.00,VWS V14.01,2013-03-25 18:04:00,
2013-03-25 14:05:00,34.8,21.3,29.67,NNE,25,12.4,15.2,57,0.00,,,0.00,VWS V14.01,2013-03-25 18:05:00,
2013-03-25 14:06:00,34.7,20.7,29.67,North,360,15.3,15.7,56,0.00,,,0.00,VWS V14.01,2013-03-25 18:06:00,
2013-03-25 14:07:00,34.7,21.0,29.67,NE,38,12.3,15.7,57,0.00,,,0.00,VWS V14.01,2013-03-25 18:07:00,
2013-03-25 14:08:00,34.4,21.5,29.66,NE,34,10.2,12.3,59,0.00,,,0.00,VWS V14.01,2013-03-25 18:08:00,
2013-03-25 14:09:00,34.7,21.5,29.66,NNE,27,11.6,11.6,58,0.00,,,0.00,VWS V14.01,2013-03-25 18:09:00,
2013-03-25 14:10:00,35.0,21.3,29.67,NNE,23,11.6,16.0,57,0.00,,,0.00,VWS V14.01,2013-03-25 18:10:00,
2013-03-25 14:11:00,34.3,21.6,29.66,NNE,22,9.2,14.8,59,0.00,,,0.00,VWS V14.01,2013-03-25 18:11:00,
2013-03-25 14:12:00,35.2,21.9,29.67,NNE,22,10.0,16.0,58,0.00,,,0.00,VWS V14.01,2013-03-25 18:12:00,
2013-03-25 14:13:00,35.2,21.9,29.67,NNE,22,10.0,16.0,58,0.00,,,0.00,VWS V14.01,2013-03-25 18:13:00,
2013-03-25 14:14:00,34.8,21.9,29.66,NNE,13,8.8,9.3,59,0.00,,,0.00,VWS V14.01,2013-03-25 18:14:00,
2013-03-25 14:15:00,35.5,22.5,29.67,NNE,15,11.2,16.0,59,0.00,,,0.00,VWS V14.01,2013-03-25 18:15:00,
2013-03-25 14:16:00,34.9,21.9,29.66,NE,43,10.9,10.9,59,0.00,,,0.00,VWS V14.01,2013-03-25 18:16:00,
2013-03-25 14:17:00,35.4,19.8,29.67,NNW,344,8.7,16.0,53,0.00,,,0.00,VWS V14.01,2013-03-25 18:17:00,
2013-03-25 14:18:00,35.4,23.1,29.67,North,350,9.0,16.0,61,0.00,,,0.00,VWS V14.01,2013-03-25 18:18:00,
2013-03-25 14:19:00,35.0,21.9,29.66,NE,41,9.7,9.7,59,0.00,,,0.00,VWS V14.01,2013-03-25 18:19:00,
2013-03-25 14:20:00,34.8,22.7,29.68,NNE,15,11.9,16.0,61,0.00,,,0.00,VWS V14.01,2013-03-25 18:20:00,
2013-03-25 14:21:00,34.8,22.9,29.68,NNE,17,11.7,16.0,62,0.00,,,0.00,VWS V14.01,2013-03-25 18:21:00,
2013-03-25 14:22:00,33.7,21.6,29.68,NNE,14,13.3,16.0,61,0.00,,,0.00,VWS V14.01,2013-03-25 18:22:00,
2013-03-25 14:23:00,34.7,21.1,29.66,North,5,11.2,11.2,57,0.00,,,0.00,VWS V14.01,2013-03-25 18:23:00,
2013-03-25 14:24:00,34.7,22.8,29.68,North,8,10.9,16.0,61,0.00,,,0.00,VWS V14.01,2013-03-25 18:24:00,
2013-03-25 14:25:00,34.9,22.0,29.66,North,11,7.6,13.6,59,0.00,,,0.00,VWS V14.01,2013-03-25 18:25:00,
2013-03-25 14:26:00,34.7,21.3,29.66,NNE,15,8.8,9.5,58,0.00,,,0.00,VWS V14.01,2013-03-25 18:26:00,
2013-03-25 14:27:00,34.8,23.7,29.67,NNE,21,7.8,16.0,64,0.00,,,0.00,VWS V14.01,2013-03-25 18:27:00,
2013-03-25 14:28:00,34.5,23.6,29.67,NNW,347,8.0,16.0,64,0.00,,,0.00,VWS V14.01,2013-03-25 18:28:00,
2013-03-25 14:29:00,34.1,23.4,29.68,NW,304,10.0,16.0,65,0.00,,,0.00,VWS V14.01,2013-03-25 18:29:00,
2013-03-25 14:30:00,34.5,23.7,29.68,West,266,6.3,16.0,64,0.00,,,0.00,VWS V14.01,2013-03-25 18:30:00,
2013-03-25 14:31:00,34.8,21.3,29.67,NNE,23,9.5,12.8,57,0.00,,,0.00,VWS V14.01,2013-03-25 18:31:00,
2013-03-25 14:32:00,35.2,25.9,29.68,NNE,32,5.6,16.0,68,0.00,,,0.00,VWS V14.01,2013-03-25 18:32:00,
2013-03-25 14:33:00,35.1,26.3,29.68,NW,304,5.1,16.0,70,0.00,,,0.00,VWS V14.01,2013-03-25 18:33:00,
2013-03-25 14:34:00,35.4,22.3,29.66,NNE,32,7.5,8.8,58,0.00,,,0.00,VWS V14.01,2013-03-25 18:34:00,
2013-03-25 14:35:00,34.5,24.8,29.68,North,0,8.3,16.0,67,0.00,,,0.00,VWS V14.01,2013-03-25 18:35:00,
2013-03-25 14:36:00,34.9,21.2,29.66,NNE,24,8.7,10.4,57,0.00,,,0.00,VWS V14.01,2013-03-25 18:36:00,
2013-03-25 14:37:00,34.6,24.4,29.68,NNE,12,11.4,16.0,66,0.00,,,0.00,VWS V14.01,2013-03-25 18:37:00,
2013-03-25 14:38:00,35.0,21.9,29.67,North,7,8.8,10.7,58,0.00,,,0.00,VWS V14.01,2013-03-25 18:38:00,
2013-03-25 14:39:00,34.6,23.6,29.68,North,360,9.2,16.0,64,0.00,,,0.00,VWS V14.01,2013-03-25 18:39:00,
2013-03-25 14:40:00,35.2,21.5,29.66,NNE,13,5.7,9.9,57,0.00,,,0.00,VWS V14.01,2013-03-25 18:40:00,
2013-03-25 14:41:00,35.6,25.2,29.68,NNE,12,10.5,16.0,65,0.00,,,0.00,VWS V14.01,2013-03-25 18:41:00,
2013-03-25 14:42:00,34.6,20.5,29.66,NE,40,10.0,11.2,56,0.00,,,0.00,VWS V14.01,2013-03-25 18:42:00,
2013-03-25 14:43:00,35.4,25.2,29.68,NNE,33,8.0,16.0,66,0.00,,,0.00,VWS V14.01,2013-03-25 18:43:00,
2013-03-25 14:44:00,34.9,24.3,29.68,NNE,25,14.5,16.0,65,0.00,,,0.00,VWS V14.01,2013-03-25 18:44:00,
2013-03-25 14:45:00,34.9,20.6,29.66,NNE,22,12.4,12.4,55,0.00,,,0.00,VWS V14.01,2013-03-25 18:45:00,
2013-03-25 14:46:00,35.3,21.3,29.66,North,5,4.5,12.4,56,0.00,,,0.00,VWS V14.01,2013-03-25 18:46:00,
2013-03-25 14:47:00,34.7,20.6,29.66,NNE,16,12.6,13.6,56,0.00,,,0.00,VWS V14.01,2013-03-25 18:47:00,
2013-03-25 14:48:00,35.2,21.6,29.66,North,3,5.4,12.6,57,0.00,,,0.00,VWS V14.01,2013-03-25 18:48:00,
2013-03-25 14:49:00,34.9,24.5,29.68,North,2,12.4,16.0,65,0.00,,,0.00,VWS V14.01,2013-03-25 18:49:00,
2013-03-25 14:50:00,34.4,23.7,29.68,NNE,23,15.7,16.0,65,0.00,,,0.00,VWS V14.01,2013-03-25 18:50:00,
2013-03-25 14:51:00,34.6,20.4,29.67,NNE,22,12.9,12.9,56,0.00,,,0.00,VWS V14.01,2013-03-25 18:51:00,
2013-03-25 14:52:00,35.0,21.4,29.67,NNE,20,6.6,12.9,57,0.00,,,0.00,VWS V14.01,2013-03-25 18:52:00,
2013-03-25 14:53:00,35.2,22.1,29.66,NNE,21,5.7,9.7,58,0.00,,,0.00,VWS V14.01,2013-03-25 18:53:00,
2013-03-25 14:54:00,34.9,21.5,29.66,NNE,33,7.8,9.0,58,0.00,,,0.00,VWS V14.01,2013-03-25 18:54:00,
2013-03-25 14:55:00,35.0,24.2,29.68,ENE,61,6.4,16.0,64,0.00,,,0.00,VWS V14.01,2013-03-25 18:55:00,
2013-03-25 14:56:00,35.0,19.0,29.67,North,351,9.0,9.0,52,0.00,,,0.00,VWS V14.01,2013-03-25 18:56:00,
2013-03-25 14:57:00,34.9,21.8,29.67,NE,41,8.0,12.9,58,0.00,,,0.00,VWS V14.01,2013-03-25 18:57:00,
2013-03-25 14:58:00,35.0,23.6,29.68,NNE,21,6.9,16.0,63,0.00,,,0.00,VWS V14.01,2013-03-25 18:58:00,
2013-03-25 14:59:00,34.5,20.4,29.67,NNE,30,12.4,15.5,56,0.00,,,0.00,VWS V14.01,2013-03-25 18:59:00,
2013-03-25 15:00:00,35.7,23.1,29.68,NNE,32,8.1,16.0,60,0.00,,,0.00,VWS V14.01,2013-03-25 19:00:00,
2013-03-25 15:01:00,35.2,22.7,29.68,North,1,9.0,16.0,60,0.00,,,0.00,VWS V14.01,2013-03-25 19:01:00,
2013-03-25 15:02:00,35.2,23.1,29.68,NNE,22,12.3,12.3,61,0.00,,,0.00,VWS V14.01,2013-03-25 19:02:00,
2013-03-25 15:03:00,35.5,23.4,29.68,NNE,20,11.6,13.3,61,0.00,,,0.00,VWS V14.01,2013-03-25 19:03:00,
2013-03-25 15:04:00,35.3,23.1,29.68,NNE,29,10.5,13.3,61,0.00,,,0.00,VWS V14.01,2013-03-25 19:04:00,
2013-03-25 15:05:00,34.7,22.2,29.68,NNE,28,12.6,12.6,60,0.00,,,0.00,VWS V14.01,2013-03-25 19:05:00,
2013-03-25 15:06:00,35.3,23.5,29.67,ENE,62,10.4,12.6,62,0.00,,,0.00,VWS V14.01,2013-03-25 19:06:00,
2013-03-25 15:07:00,35.8,24.2,29.68,North,11,6.8,8.8,63,0.00,,,0.00,VWS V14.01,2013-03-25 19:07:00,
2013-03-25 15:08:00,35.8,24.0,29.67,NNE,22,8.1,8.1,62,0.00,,,0.00,VWS V14.01,2013-03-25 19:08:00,
2013-03-25 15:09:00,35.8,23.8,29.68,North,5,9.0,9.0,61,0.00,,,0.00,VWS V14.01,2013-03-25 19:09:00,
2013-03-25 15:10:00,35.2,22.7,29.68,NNE,27,12.6,12.6,60,0.00,,,0.00,VWS V14.01,2013-03-25 19:10:00,
2013-03-25 15:11:00,35.8,23.0,29.68,NW,325,7.3,12.6,59,0.00,,,0.00,VWS V14.01,2013-03-25 19:11:00,
2013-03-25 15:12:00,36.1,24.0,29.67,NW,321,9.3,12.1,61,0.00,,,0.00,VWS V14.01,2013-03-25 19:12:00,
2013-03-25 15:13:00,36.1,23.1,29.67,NNW,347,6.6,9.3,59,0.00,,,0.00,VWS V14.01,2013-03-25 19:13:00,
2013-03-25 15:14:00,36.0,23.0,29.67,NNE,19,9.2,9.5,59,0.00,,,0.00,VWS V14.01,2013-03-25 19:14:00,
2013-03-25 15:15:00,35.5,22.4,29.68,NNE,19,9.0,9.2,58,0.00,,,0.00,VWS V14.01,2013-03-25 19:15:00,
2013-03-25 15:16:00,35.9,22.2,29.69,NNE,30,9.9,13.8,57,0.00,,,0.00,VWS V14.01,2013-03-25 19:16:00,
2013-03-25 15:17:00,36.8,23.5,29.68,North,1,4.9,11.9,58,0.00,,,0.00,VWS V14.01,2013-03-25 19:17:00,
2013-03-25 15:18:00,37.2,24.0,29.69,NNE,26,5.6,5.6,59,0.00,,,0.00,VWS V14.01,2013-03-25 19:18:00,
2013-03-25 15:19:00,36.0,21.2,29.68,NE,34,12.9,12.9,55,0.00,,,0.00,VWS V14.01,2013-03-25 19:19:00,
2013-03-25 15:20:00,36.5,21.9,29.69,NE,47,9.2,12.9,55,0.00,,,0.00,VWS V14.01,2013-03-25 19:20:00,
2013-03-25 15:21:00,36.9,22.8,29.68,NNW,339,6.8,9.2,56,0.00,,,0.00,VWS V14.01,2013-03-25 19:21:00,
2013-03-25 15:22:00,36.3,21.2,29.68,North,0,10.7,10.7,54,0.00,,,0.00,VWS V14.01,2013-03-25 19:22:00,
2013-03-25 15:23:00,36.6,22.1,29.68,North,7,12.1,12.1,55,0.00,,,0.00,VWS V14.01,2013-03-25 19:23:00,
2013-03-25 15:24:00,37.1,22.8,29.68,North,2,8.8,12.1,56,0.00,,,0.00,VWS V14.01,2013-03-25 19:24:00,
2013-03-25 15:25:00,36.9,22.9,29.68,North,8,5.6,12.1,56,0.00,,,0.00,VWS V14.01,2013-03-25 19:25:00,
2013-03-25 15:26:00,35.4,20.2,29.68,NE,42,7.1,9.7,53,0.00,,,0.00,VWS V14.01,2013-03-25 19:26:00,
2013-03-25 15:27:00,35.6,21.9,29.68,NNE,30,8.3,8.3,57,0.00,,,0.00,VWS V14.01,2013-03-25 19:27:00,
2013-03-25 15:28:00,37.3,23.6,29.68,North,9,5.6,8.3,57,0.00,,,0.00,VWS V14.01,2013-03-25 19:28:00,
2013-03-25 15:29:00,35.2,21.2,29.69,NNE,16,13.3,13.3,56,0.00,,,0.00,VWS V14.01,2013-03-25 19:29:00,
2013-03-25 15:30:00,36.0,22.1,29.69,NNW,330,7.5,13.3,57,0.00,,,0.00,VWS V14.01,2013-03-25 19:30:00,
2013-03-25 15:31:00,35.8,22.0,29.68,NNW,330,10.2,10.2,57,0.00,,,0.00,VWS V14.01,2013-03-25 19:31:00,
2013-03-25 15:32:00,35.5,21.3,29.68,North,2,9.7,9.7,56,0.00,,,0.00,VWS V14.01,2013-03-25 19:32:00,
2013-03-25 15:33:00,35.9,22.0,29.69,North,351,7.6,11.2,57,0.00,,,0.00,VWS V14.01,2013-03-25 19:33:00,
2013-03-25 15:34:00,35.2,22.0,29.69,NE,38,11.2,11.7,58,0.00,,,0.00,VWS V14.01,2013-03-25 19:34:00,
2013-03-25 15:35:00,35.6,22.4,29.69,NNE,18,9.0,11.2,58,0.00,,,0.00,VWS V14.01,2013-03-25 19:35:00,
2013-03-25 15:36:00,35.1,22.3,29.69,NE,41,8.1,13.1,59,0.00,,,0.00,VWS V14.01,2013-03-25 19:36:00,
2013-03-25 15:37:00,35.2,21.8,29.69,NNE,25,13.6,13.6,58,0.00,,,0.00,VWS V14.01,2013-03-25 19:37:00,
2013-03-25 15:38:00,35.3,22.0,29.68,NNE,16,11.4,13.6,58,0.00,,,0.00,VWS V14.01,2013-03-25 19:38:00,
2013-03-25 15:39:00,36.6,24.2,29.69,NE,42,8.0,11.4,60,0.00,,,0.00,VWS V14.01,2013-03-25 19:39:00,
2013-03-25 15:40:00,36.1,23.3,29.68,NNE,30,8.5,8.5,59,0.00,,,0.00,VWS V14.01,2013-03-25 19:40:00,
2013-03-25 15:41:00,35.5,22.7,29.68,NE,42,8.5,8.5,59,0.00,,,0.00,VWS V14.01,2013-03-25 19:41:00,
2013-03-25 15:42:00,36.1,23.4,29.69,NNE,29,9.3,9.3,60,0.00,,,0.00,VWS V14.01,2013-03-25 19:42:00,
2013-03-25 15:43:00,36.1,23.8,29.68,NNE,30,5.7,9.3,61,0.00,,,0.00,VWS V14.01,2013-03-25 19:43:00,
2013-03-25 15:44:00,36.5,24.1,29.68,NNE,14,8.1,8.1,60,0.00,,,0.00,VWS V14.01,2013-03-25 19:44:00,
2013-03-25 15:45:00,36.5,24.1,29.68,NNE,14,8.1,8.1,60,0.00,,,0.00,VWS V14.01,2013-03-25 19:45:00,
2013-03-25 15:46:00,36.0,23.3,29.69,NE,39,7.8,8.0,60,0.00,,,0.00,VWS V14.01,2013-03-25 19:46:00,
2013-03-25 15:47:00,36.0,22.9,29.69,NNE,25,10.7,11.6,59,0.00,,,0.00,VWS V14.01,2013-03-25 19:47:00,
2013-03-25 15:48:00,35.9,22.8,29.69,NNW,329,9.5,10.7,59,0.00,,,0.00,VWS V14.01,2013-03-25 19:48:00,
2013-03-25 15:49:00,36.2,22.9,29.70,NNE,18,6.1,8.0,58,0.00,,,0.00,VWS V14.01,2013-03-25 19:49:00,
2013-03-25 15:50:00,35.1,21.6,29.70,NE,37,13.4,13.4,57,0.00,,,0.00,VWS V14.01,2013-03-25 19:50:00,
2013-03-25 15:51:00,36.0,23.0,29.69,NNE,22,8.0,8.0,59,0.00,,,0.00,VWS V14.01,2013-03-25 19:51:00,
2013-03-25 15:52:00,36.3,23.1,29.69,NNE,20,8.1,8.1,58,0.00,,,0.00,VWS V14.01,2013-03-25 19:52:00,
2013-03-25 15:53:00,36.4,23.3,29.69,NNE,28,11.4,11.4,59,0.00,,,0.00,VWS V14.01,2013-03-25 19:53:00,
2013-03-25 15:54:00,35.3,21.3,29.70,NE,38,8.7,11.4,56,0.00,,,0.00,VWS V14.01,2013-03-25 19:54:00,
2013-03-25 15:55:00,36.4,23.4,29.70,NNE,18,7.6,10.2,59,0.00,,,0.00,VWS V14.01,2013-03-25 19:55:00,
2013-03-25 15:56:00,35.5,21.4,29.70,NNE,23,12.8,12.8,56,0.00,,,0.00,VWS V14.01,2013-03-25 19:56:00,
2013-03-25 15:57:00,36.0,22.0,29.70,NNE,27,12.8,14.0,56,0.00,,,0.00,VWS V14.01,2013-03-25 19:57:00,
2013-03-25 15:58:00,35.8,21.9,29.70,NE,52,14.3,14.3,57,0.00,,,0.00,VWS V14.01,2013-03-25 19:58:00,
2013-03-25 15:59:00,36.2,22.3,29.70,NNE,32,11.7,14.3,57,0.00,,,0.00,VWS V14.01,2013-03-25 19:59:00,
2013-03-25 16:00:00,35.3,21.4,29.69,NE,42,8.7,12.8,56,0.00,,,0.00,VWS V14.01,2013-03-25 20:00:00,
2013-03-25 16:01:00,35.3,21.4,29.69,NE,42,8.7,12.8,56,0.00,,,0.00,VWS V14.01,2013-03-25 20:01:00,
2013-03-25 16:02:00,35.5,21.6,29.70,NE,37,12.4,12.4,57,0.00,,,0.00,VWS V14.01,2013-03-25 20:02:00,
2013-03-25 16:03:00,36.0,22.3,29.71,NE,46,7.5,12.9,57,0.00,,,0.00,VWS V14.01,2013-03-25 20:03:00,
2013-03-25 16:05:00,35.4,19.5,29.70,NNE,24,10.2,10.2,52,0.00,,,0.00,VWS V14.01,2013-03-25 20:05:00,
2013-03-25 16:06:00,35.5,20.7,29.71,NNE,26,15.5,15.5,55,0.00,,,0.00,VWS V14.01,2013-03-25 20:06:00,
2013-03-25 16:07:00,36.1,22.4,29.71,NNE,25,7.1,11.1,57,0.00,,,0.00,VWS V14.01,2013-03-25 20:07:00,
2013-03-25 16:09:00,35.5,21.1,29.71,NNE,31,11.6,11.6,55,0.00,,,0.00,VWS V14.01,2013-03-25 20:09:00,
2013-03-25 16:11:00,36.8,24.1,29.70,NNW,337,4.9,7.8,60,0.00,,,0.00,VWS V14.01,2013-03-25 20:11:00,
2013-03-25 16:12:00,36.8,24.1,29.70,NNW,337,4.9,4.9,60,0.00,,,0.00,VWS V14.01,2013-03-25 20:12:00,
2013-03-25 16:16:00,36.6,24.1,29.71,NW,324,4.7,4.7,60,0.00,,,0.00,VWS V14.01,2013-03-25 20:16:00,
2013-03-25 16:17:00,36.6,23.6,29.71,North,351,4.9,5.7,59,0.00,,,0.00,VWS V14.01,2013-03-25 20:17:00,
2013-03-25 16:18:00,35.9,22.8,29.71,NW,310,7.8,7.8,59,0.00,,,0.00,VWS V14.01,2013-03-25 20:18:00,
2013-03-25 16:22:00,35.7,22.4,29.70,NNE,33,7.8,10.7,58,0.00,,,0.00,VWS V14.01,2013-03-25 20:22:00,
2013-03-25 16:23:00,35.4,22.5,29.71,North,351,9.3,9.3,59,0.00,,,0.00,VWS V14.01,2013-03-25 20:23:00,
2013-03-25 16:24:00,35.5,22.2,29.71,NNW,336,11.1,11.1,58,0.00,,,0.00,VWS V14.01,2013-03-25 20:24:00,
2013-03-25 16:27:00,36.0,22.5,29.71,NW,325,5.6,9.5,58,0.00,,,0.00,VWS V14.01,2013-03-25 20:27:00,
2013-03-25 16:28:00,36.0,22.8,29.72,WNW,298,6.3,6.3,58,0.00,,,0.00,VWS V14.01,2013-03-25 20:28:00,
2013-03-25 16:29:00,35.6,22.9,29.71,WNW,301,6.8,6.8,60,0.00,,,0.00,VWS V14.01,2013-03-25 20:29:00,
2013-03-25 16:32:00,35.9,22.4,29.72,NE,39,7.8,7.8,57,0.00,,,0.00,VWS V14.01,2013-03-25 20:32:00,
2013-03-25 16:34:00,36.0,22.2,29.72,North,350,9.3,9.3,57,0.00,,,0.00,VWS V14.01,2013-03-25 20:34:00,
2013-03-25 16:36:00,35.9,21.8,29.72,North,7,9.9,9.9,56,0.00,,,0.00,VWS V14.01,2013-03-25 20:36:00,
2013-03-25 16:38:00,35.9,21.5,29.71,NW,311,7.8,9.9,55,0.00,,,0.00,VWS V14.01,2013-03-25 20:38:00,
2013-03-25 16:39:00,36.2,22.2,29.71,ENE,72,6.8,7.6,57,0.00,,,0.00,VWS V14.01,2013-03-25 20:39:00,
2013-03-25 16:41:00,36.3,22.7,29.71,NNE,16,11.9,11.9,57,0.00,,,0.00,VWS V14.01,2013-03-25 20:41:00,
2013-03-25 16:42:00,36.4,22.1,29.72,NE,44,9.7,9.7,56,0.00,,,0.00,VWS V14.01,2013-03-25 20:42:00,
2013-03-25 16:43:00,35.7,21.2,29.72,NW,319,12.8,12.8,55,0.00,,,0.00,VWS V14.01,2013-03-25 20:43:00,
2013-03-25 16:44:00,35.8,21.7,29.72,NNW,343,6.3,9.9,56,0.00,,,0.00,VWS V14.01,2013-03-25 20:44:00,
2013-03-25 16:46:00,35.9,21.9,29.72,North,7,6.1,9.0,56,0.00,,,0.00,VWS V14.01,2013-03-25 20:46:00,
2013-03-25 16:47:00,36.5,22.0,29.72,NE,38,6.8,9.5,55,0.00,,,0.00,VWS V14.01,2013-03-25 20:47:00,
2013-03-25 16:50:00,36.6,23.3,29.72,NW,306,2.8,3.7,58,0.00,,,0.00,VWS V14.01,2013-03-25 20:50:00,
2013-03-25 16:51:00,36.1,21.4,29.72,NW,326,11.4,11.4,55,0.00,,,0.00,VWS V14.01,2013-03-25 20:51:00,
2013-03-25 16:52:00,36.2,21.9,29.72,NE,40,10.0,11.4,56,0.00,,,0.00,VWS V14.01,2013-03-25 20:52:00,
2013-03-25 16:55:00,36.6,22.8,29.72,North,360,8.3,10.9,57,0.00,,,0.00,VWS V14.01,2013-03-25 20:55:00,
2013-03-25 16:56:00,36.5,22.1,29.72,NNW,327,9.9,9.9,56,0.00,,,0.00,VWS V14.01,2013-03-25 20:56:00,
2013-03-25 16:57:00,36.5,22.2,29.73,NNE,21,10.0,10.0,56,0.00,,,0.00,VWS V14.01,2013-03-25 20:57:00,
2013-03-25 16:58:00,36.0,22.0,29.73,NNE,14,8.1,10.0,56,0.00,,,0.00,VWS V14.01,2013-03-25 20:58:00,
2013-03-25 17:01:00,36.0,21.9,29.73,NNE,17,12.8,12.8,56,0.00,,,0.00,VWS V14.01,2013-03-25 21:01:00,
2013-03-25 17:02:00,36.2,21.9,29.73,North,4,10.0,12.8,56,0.00,,,0.00,VWS V14.01,2013-03-25 21:02:00,
2013-03-25 17:03:00,36.1,22.0,29.73,North,0,10.7,12.8,56,0.00,,,0.00,VWS V14.01,2013-03-25 21:03:00,
2013-03-25 17:04:00,36.6,23.1,29.73,NNW,328,4.4,12.8,58,0.00,,,0.00,VWS V14.01,2013-03-25 21:04:00,
2013-03-25 17:05:00,36.1,22.4,29.70,NE,40,6.8,9.7,57,0.00,,,0.00,VWS V14.01,2013-03-25 21:05:00,
2013-03-25 17:06:00,36.3,22.8,29.73,NNW,333,13.8,13.8,58,0.00,,,0.00,VWS V14.01,2013-03-25 21:06:00,
2013-03-25 17:07:00,36.0,21.8,29.73,NE,38,8.3,13.8,56,0.00,,,0.00,VWS V14.01,2013-03-25 21:07:00,
2013-03-25 17:08:00,35.8,21.7,29.71,ESE,115,11.1,15.5,56,0.00,,,0.00,VWS V14.01,2013-03-25 21:08:00,
2013-03-25 17:09:00,35.4,22.4,29.73,NNE,22,10.2,13.8,59,0.00,,,0.00,VWS V14.01,2013-03-25 21:09:00,
2013-03-25 17:10:00,35.6,21.3,29.71,NNE,33,13.1,13.1,56,0.00,,,0.00,VWS V14.01,2013-03-25 21:10:00,
2013-03-25 17:11:00,36.3,23.0,29.71,NNE,22,7.8,13.1,58,0.00,,,0.00,VWS V14.01,2013-03-25 21:11:00,
2013-03-25 17:12:00,36.8,24.1,29.70,NNW,337,4.9,7.8,60,0.00,,,0.00,VWS V14.01,2013-03-25 21:12:00,
2013-03-25 17:13:00,36.3,23.0,29.70,North,4,8.0,8.0,58,0.00,,,0.00,VWS V14.01,2013-03-25 21:13:00,
2013-03-25 17:14:00,35.5,24.0,29.74,NW,321,9.2,13.8,62,0.00,,,0.00,VWS V14.01,2013-03-25 21:14:00,
2013-03-25 17:15:00,35.5,24.3,29.74,NW,326,8.1,13.8,63,0.00,,,0.00,VWS V14.01,2013-03-25 21:15:00,
2013-03-25 17:16:00,34.9,23.6,29.73,NNE,17,12.6,13.8,63,0.00,,,0.00,VWS V14.01,2013-03-25 21:16:00,
2013-03-25 17:17:00,36.9,24.4,29.71,North,2,5.7,5.7,60,0.00,,,0.00,VWS V14.01,2013-03-25 21:17:00,
2013-03-25 17:18:00,35.9,22.8,29.71,NW,310,7.8,7.8,59,0.00,,,0.00,VWS V14.01,2013-03-25 21:18:00,
2013-03-25 17:19:00,36.1,22.5,29.71,NW,320,6.3,7.8,57,0.00,,,0.00,VWS V14.01,2013-03-25 21:19:00,
2013-03-25 17:20:00,35.0,24.7,29.74,North,5,6.6,13.8,66,0.00,,,0.00,VWS V14.01,2013-03-25 21:20:00,
2013-03-25 17:21:00,35.3,25.6,29.74,North,0,8.1,13.8,67,0.00,,,0.00,VWS V14.01,2013-03-25 21:21:00,
2013-03-25 17:22:00,34.8,24.8,29.74,NE,46,9.2,13.8,66,0.00,,,0.00,VWS V14.01,2013-03-25 21:22:00,
2013-03-25 17:23:00,35.7,22.4,29.70,NNE,33,7.8,10.7,58,0.00,,,0.00,VWS V14.01,2013-03-25 21:23:00,
2013-03-25 17:24:00,35.4,22.5,29.71,North,351,9.3,9.3,59,0.00,,,0.00,VWS V14.01,2013-03-25 21:24:00,
2013-03-25 17:25:00,34.6,25.2,29.74,NE,38,4.9,13.8,68,0.00,,,0.00,VWS V14.01,2013-03-25 21:25:00,
2013-03-25 17:26:00,36.0,22.9,29.71,NNE,30,8.5,10.0,59,0.00,,,0.00,VWS V14.01,2013-03-25 21:26:00,
2013-03-25 17:27:00,34.7,25.6,29.75,NNE,22,6.6,13.8,69,0.00,,,0.00,VWS V14.01,2013-03-25 21:27:00,
2013-03-25 17:28:00,36.0,22.7,29.74,NNW,328,5.6,9.5,58,0.00,,,0.00,VWS V14.01,2013-03-25 21:28:00,
2013-03-25 17:29:00,36.0,22.8,29.72,WNW,298,6.3,6.3,58,0.00,,,0.00,VWS V14.01,2013-03-25 21:29:00,
2013-03-25 17:30:00,34.9,26.5,29.75,NW,323,7.3,13.8,71,0.00,,,0.00,VWS V14.01,2013-03-25 21:30:00,
2013-03-25 17:31:00,35.4,22.2,29.71,NNE,28,8.3,8.3,58,0.00,,,0.00,VWS V14.01,2013-03-25 21:31:00,
2013-03-25 17:32:00,34.8,26.6,29.75,NNE,32,7.5,13.8,72,0.00,,,0.00,VWS V14.01,2013-03-25 21:32:00,
2013-03-25 17:33:00,34.9,26.9,29.75,WNW,297,6.9,13.8,72,0.00,,,0.00,VWS V14.01,2013-03-25 21:33:00,
2013-03-25 17:34:00,36.2,22.7,29.72,North,351,5.1,7.8,58,0.00,,,0.00,VWS V14.01,2013-03-25 21:34:00,
2013-03-25 17:35:00,35.5,27.3,29.75,North,350,5.1,13.8,72,0.00,,,0.00,VWS V14.01,2013-03-25 21:35:00,
2013-03-25 17:36:00,35.9,21.5,29.73,NNW,342,8.1,11.2,55,0.00,,,0.00,VWS V14.01,2013-03-25 21:36:00,
2013-03-25 17:37:00,35.0,26.6,29.75,NNW,347,6.9,13.8,71,0.00,,,0.00,VWS V14.01,2013-03-25 21:37:00,
2013-03-25 17:38:00,35.9,21.5,29.71,NW,311,7.8,9.9,55,0.00,,,0.00,VWS V14.01,2013-03-25 21:38:00,
2013-03-25 17:39:00,35.6,20.9,29.71,North,7,7.6,7.8,55,0.00,,,0.00,VWS V14.01,2013-03-25 21:39:00,
2013-03-25 17:40:00,35.4,27.2,29.75,North,11,5.9,13.8,72,0.00,,,0.00,VWS V14.01,2013-03-25 21:40:00,
2013-03-25 17:41:00,36.6,23.1,29.73,NNW,337,7.1,7.5,58,0.00,,,0.00,VWS V14.01,2013-03-25 21:41:00,
2013-03-25 17:42:00,35.2,25.8,29.75,North,350,7.6,13.8,68,0.00,,,0.00,VWS V14.01,2013-03-25 21:42:00,
2013-03-25 17:43:00,35.0,25.6,29.76,NNW,346,8.3,13.8,68,0.00,,,0.00,VWS V14.01,2013-03-25 21:43:00,
2013-03-25 17:44:00,35.3,26.1,29.76,NNE,18,4.5,13.8,69,0.00,,,0.00,VWS V14.01,2013-03-25 21:44:00,
2013-03-25 17:45:00,35.6,26.8,29.75,North,349,3.7,13.8,70,0.00,,,0.00,VWS V14.01,2013-03-25 21:45:00,
2013-03-25 17:46:00,36.0,21.9,29.72,North,350,9.0,9.9,56,0.00,,,0.00,VWS V14.01,2013-03-25 21:46:00,
2013-03-25 17:47:00,35.9,21.9,29.73,North,7,6.1,9.0,56,0.00,,,0.00,VWS V14.01,2013-03-25 21:47:00,
2013-03-25 17:48:00,35.9,26.1,29.76,East,80,3.4,13.8,67,0.00,,,0.00,VWS V14.01,2013-03-25 21:48:00,
2013-03-25 17:49:00,36.4,22.6,29.72,NNE,23,4.4,6.8,57,0.00,,,0.00,VWS V14.01,2013-03-25 21:49:00,
2013-03-25 17:50:00,35.7,26.0,29.76,NNE,12,8.7,13.8,68,0.00,,,0.00,VWS V14.01,2013-03-25 21:50:00,
2013-03-25 17:51:00,36.6,23.3,29.72,NW,306,2.8,3.7,58,0.00,,,0.00,VWS V14.01,2013-03-25 21:51:00,
2013-03-25 17:52:00,36.1,21.4,29.72,NW,326,11.4,11.4,55,0.00,,,0.00,VWS V14.01,2013-03-25 21:52:00,
2013-03-25 17:53:00,36.0,21.4,29.72,North,2,10.2,11.4,55,0.00,,,0.00,VWS V14.01,2013-03-25 21:53:00,
2013-03-25 17:54:00,35.6,25.5,29.76,NNE,23,6.6,13.8,66,0.00,,,0.00,VWS V14.01,2013-03-25 21:54:00,
2013-03-25 17:55:00,35.6,25.0,29.76,NNE,31,5.1,13.8,65,0.00,,,0.00,VWS V14.01,2013-03-25 21:55:00,
2013-03-25 17:56:00,36.6,22.8,29.72,North,360,8.3,10.9,57,0.00,,,0.00,VWS V14.01,2013-03-25 21:56:00,
2013-03-25 17:57:00,36.7,22.7,29.72,North,1,7.5,8.3,56,0.00,,,0.00,VWS V14.01,2013-03-25 21:57:00,
2013-03-25 17:58:00,36.5,22.2,29.73,NNE,21,10.0,10.0,56,0.00,,,0.00,VWS V14.01,2013-03-25 21:58:00,
2013-03-25 17:59:00,36.5,22.3,29.73,NNE,22,7.5,10.0,56,0.00,,,0.00,VWS V14.01,2013-03-25 21:59:00,
2013-03-25 18:00:00,36.0,24.1,29.76,North,5,8.7,13.8,62,0.00,,,0.00,VWS V14.01,2013-03-25 22:00:00,
2013-03-25 18:03:00,36.1,23.5,29.76,NE,42,9.2,9.2,60,0.00,,,0.00,VWS V14.01,2013-03-25 22:03:00,
2013-03-25 18:05:00,36.1,23.8,29.75,North,9,6.8,9.2,60,0.00,,,0.00,VWS V14.01,2013-03-25 22:05:00,
2013-03-25 18:06:00,36.1,23.8,29.75,North,9,6.8,9.2,60,0.00,,,0.00,VWS V14.01,2013-03-25 22:06:00,
2013-03-25 18:07:00,35.8,22.9,29.76,NW,322,8.3,11.9,59,0.00,,,0.00,VWS V14.01,2013-03-25 22:07:00,
2013-03-25 18:08:00,35.7,23.0,29.75,North,9,8.7,11.9,60,0.00,,,0.00,VWS V14.01,2013-03-25 22:08:00,
2013-03-25 18:11:00,35.9,24.2,29.76,NNW,346,5.7,11.9,62,0.00,,,0.00,VWS V14.01,2013-03-25 22:11:00,
2013-03-25 18:12:00,35.6,23.7,29.76,North,0,8.0,11.9,61,0.00,,,0.00,VWS V14.01,2013-03-25 22:12:00,
2013-03-25 18:13:00,35.6,24.7,29.77,North,349,16.5,16.5,64,0.00,,,0.00,VWS V14.01,2013-03-25 22:13:00,
2013-03-25 18:16:00,34.8,24.6,29.77,WNW,303,8.8,16.5,66,0.00,,,0.00,VWS V14.01,2013-03-25 22:16:00,
2013-03-25 18:17:00,35.0,25.2,29.77,North,9,7.5,16.5,67,0.00,,,0.00,VWS V14.01,2013-03-25 22:17:00,
2013-03-25 18:19:00,35.1,26.0,29.78,NW,310,5.7,16.5,69,0.00,,,0.00,VWS V14.01,2013-03-25 22:19:00,
2013-03-25 18:22:00,34.9,25.3,29.78,North,4,14.1,16.5,68,0.00,,,0.00,VWS V14.01,2013-03-25 22:22:00,
2013-03-25 18:24:00,35.1,24.9,29.78,NNW,327,10.5,16.5,66,0.00,,,0.00,VWS V14.01,2013-03-25 22:24:00,
2013-03-25 18:25:00,35.4,25.3,29.77,North,6,8.5,16.5,66,0.00,,,0.00,VWS V14.01,2013-03-25 22:25:00,
2013-03-25 18:27:00,35.3,25.2,29.77,North,351,6.8,16.5,66,0.00,,,0.00,VWS V14.01,2013-03-25 22:27:00,
2013-03-25 18:28:00,35.2,25.0,29.78,North,349,8.5,16.5,66,0.00,,,0.00,VWS V14.01,2013-03-25 22:28:00,
2013-03-25 18:30:00,35.2,25.6,29.78,North,6,4.5,16.5,68,0.00,,,0.00,VWS V14.01,2013-03-25 22:30:00,
2013-03-25 18:32:00,35.2,25.1,29.79,NNW,340,6.3,16.5,66,0.00,,,0.00,VWS V14.01,2013-03-25 22:32:00,
2013-03-25 18:34:00,34.9,24.7,29.78,North,10,9.3,16.5,66,0.00,,,0.00,VWS V14.01,2013-03-25 22:34:00,
2013-03-25 18:35:00,35.0,25.1,29.82,North,7,8.1,16.5,67,0.00,,,0.00,VWS V14.01,2013-03-25 22:35:00,
2013-03-25 18:37:00,35.0,25.1,29.78,NNW,330,8.5,16.5,67,0.00,,,0.00,VWS V14.01,2013-03-25 22:37:00,
2013-03-25 18:40:00,34.8,25.1,29.79,North,349,8.7,16.5,67,0.00,,,0.00,VWS V14.01,2013-03-25 22:40:00,
2013-03-25 18:42:00,35.0,25.1,29.82,NNE,14,9.5,16.5,67,0.00,,,0.00,VWS V14.01,2013-03-25 22:42:00,
2013-03-25 18:43:00,35.0,25.1,29.82,NNE,14,9.5,16.5,67,0.00,,,0.00,VWS V14.01,2013-03-25 22:43:00,
2013-03-25 18:48:00,35.1,24.7,29.79,NNW,339,7.1,16.5,66,0.00,,,0.00,VWS V14.01,2013-03-25 22:48:00,
2013-03-25 18:49:00,35.1,25.1,29.79,North,0,5.6,16.5,67,0.00,,,0.00,VWS V14.01,2013-03-25 22:49:00,
2013-03-25 18:50:00,35.2,25.2,29.79,NW,312,4.4,16.5,67,0.00,,,0.00,VWS V14.01,2013-03-25 22:50:00,
2013-03-25 18:54:00,35.2,25.4,29.79,NNE,20,4.9,16.5,67,0.00,,,0.00,VWS V14.01,2013-03-25 22:54:00,
2013-03-25 18:55:00,35.2,26.0,29.80,North,349,3.9,16.5,69,0.00,,,0.00,VWS V14.01,2013-03-25 22:55:00,
2013-03-25 18:57:00,35.2,25.5,29.80,WNW,299,4.4,16.5,67,0.00,,,0.00,VWS V14.01,2013-03-25 22:57:00,
2013-03-25 19:00:00,35.1,24.6,29.81,NNE,18,3.7,16.5,65,0.00,,,0.00,VWS V14.01,2013-03-25 23:00:00,
2013-03-25 19:01:00,36.1,23.8,29.76,North,4,8.1,13.8,61,0.00,,,0.00,VWS V14.01,2013-03-25 23:01:00,
2013-03-25 19:02:00,35.1,24.4,29.79,North,9,4.4,16.5,64,0.00,,,0.00,VWS V14.01,2013-03-25 23:02:00,
2013-03-25 19:03:00,35.1,24.5,29.80,North,4,6.8,6.8,65,0.00,,,0.00,VWS V14.01,2013-03-25 23:03:00,
2013-03-25 19:04:00,35.1,24.5,29.80,North,4,6.8,6.8,65,0.00,,,0.00,VWS V14.01,2013-03-25 23:04:00,
2013-03-25 19:05:00,35.0,24.2,29.80,NE,37,6.9,6.9,64,0.00,,,0.00,VWS V14.01,2013-03-25 23:05:00,
2013-03-25 19:06:00,35.0,24.2,29.80,NE,37,6.9,6.9,64,0.00,,,0.00,VWS V14.01,2013-03-25 23:06:00,
2013-03-25 19:07:00,35.0,24.5,29.80,NNW,332,4.7,4.7,65,0.00,,,0.00,VWS V14.01,2013-03-25 23:07:00,
2013-03-25 19:08:00,35.0,24.5,29.80,ENE,60,3.2,4.7,65,0.00,,,0.00,VWS V14.01,2013-03-25 23:08:00,
2013-03-25 19:09:00,35.0,24.5,29.80,NNE,13,4.7,4.7,65,0.00,,,0.00,VWS V14.01,2013-03-25 23:09:00,
2013-03-25 19:10:00,35.0,24.6,29.81,NW,325,5.7,5.7,65,0.00,,,0.00,VWS V14.01,2013-03-25 23:10:00,
2013-03-25 19:11:00,35.1,24.4,29.80,ENE,57,6.9,6.9,65,0.00,,,0.00,VWS V14.01,2013-03-25 23:11:00,
2013-03-25 19:12:00,35.1,23.9,29.80,NNE,22,8.5,8.5,63,0.00,,,0.00,VWS V14.01,2013-03-25 23:12:00,
2013-03-25 19:13:00,35.0,23.9,29.81,NNE,14,7.8,9.3,63,0.00,,,0.00,VWS V14.01,2013-03-25 23:13:00,
2013-03-25 19:14:00,35.1,23.9,29.81,NW,326,9.9,9.9,63,0.00,,,0.00,VWS V14.01,2013-03-25 23:14:00,
2013-03-25 19:15:00,35.0,24.1,29.80,North,10,5.6,9.9,64,0.00,,,0.00,VWS V14.01,2013-03-25 23:15:00,
2013-03-25 19:16:00,35.1,24.0,29.80,North,351,9.0,9.0,64,0.00,,,0.00,VWS V14.01,2013-03-25 23:16:00,
2013-03-25 19:17:00,35.0,23.8,29.81,NNW,343,5.9,9.0,63,0.00,,,0.00,VWS V14.01,2013-03-25 23:17:00,
2013-03-25 19:18:00,35.0,23.5,29.81,NNW,331,7.5,8.1,62,0.00,,,0.00,VWS V14.01,2013-03-25 23:18:00,
2013-03-25 19:19:00,35.0,23.4,29.81,North,0,8.0,8.0,62,0.00,,,0.00,VWS V14.01,2013-03-25 23:19:00,
2013-03-25 19:20:00,35.0,23.5,29.81,NNE,23,9.2,9.2,62,0.00,,,0.00,VWS V14.01,2013-03-25 23:20:00,
2013-03-25 19:21:00,34.8,23.7,29.82,NE,42,6.1,9.2,63,0.00,,,0.00,VWS V14.01,2013-03-25 23:21:00,
2013-03-25 19:23:00,34.9,23.6,29.81,NE,42,8.0,8.0,63,0.00,,,0.00,VWS V14.01,2013-03-25 23:23:00,
2013-03-25 19:24:00,34.8,23.8,29.81,NNW,347,5.2,5.2,64,0.00,,,0.00,VWS V14.01,2013-03-25 23:24:00,
2013-03-25 19:25:00,34.8,23.8,29.81,WNW,300,4.9,5.2,64,0.00,,,0.00,VWS V14.01,2013-03-25 23:25:00,
2013-03-25 19:26:00,34.7,23.7,29.82,North,5,5.1,5.1,64,0.00,,,0.00,VWS V14.01,2013-03-25 23:26:00,
2013-03-25 19:27:00,34.9,22.6,29.82,North,350,7.3,9.3,60,0.00,,,0.00,VWS V14.01,2013-03-25 23:27:00,
2013-03-25 19:28:00,34.7,23.6,29.82,NNW,341,4.4,7.3,64,0.00,,,0.00,VWS V14.01,2013-03-25 23:28:00,
2013-03-25 19:29:00,34.7,23.5,29.82,ENE,58,5.1,5.1,63,0.00,,,0.00,VWS V14.01,2013-03-25 23:29:00,
2013-03-25 19:30:00,34.8,23.3,29.82,NNW,333,6.6,6.9,62,0.00,,,0.00,VWS V14.01,2013-03-25 23:30:00,
2013-03-25 19:31:00,34.9,23.5,29.82,NNW,337,10.7,10.7,63,0.00,,,0.00,VWS V14.01,2013-03-25 23:31:00,
2013-03-25 19:32:00,34.6,21.9,29.82,NNW,338,5.1,10.7,59,0.00,,,0.00,VWS V14.01,2013-03-25 23:32:00,
2013-03-25 19:33:00,34.6,23.2,29.82,NNW,331,3.4,5.1,63,0.00,,,0.00,VWS V14.01,2013-03-25 23:33:00,
2013-03-25 19:34:00,34.6,23.4,29.82,NE,41,6.4,6.4,63,0.00,,,0.00,VWS V14.01,2013-03-25 23:34:00,
2013-03-25 19:35:00,34.5,23.3,29.83,NNE,14,4.0,6.4,63,0.00,,,0.00,VWS V14.01,2013-03-25 23:35:00,
2013-03-25 19:36:00,34.6,23.3,29.83,North,6,5.2,5.2,63,0.00,,,0.00,VWS V14.01,2013-03-25 23:36:00,
2013-03-25 19:37:00,34.6,23.3,29.83,NW,312,4.0,8.1,63,0.00,,,0.00,VWS V14.01,2013-03-25 23:37:00,
2013-03-25 19:38:00,34.6,23.2,29.83,North,4,6.3,6.3,63,0.00,,,0.00,VWS V14.01,2013-03-25 23:38:00,
2013-03-25 19:39:00,34.0,22.8,29.87,NNW,337,3.4,6.3,63,0.00,,,0.00,VWS V14.01,2013-03-25 23:39:00,
2013-03-25 19:40:00,34.5,23.3,29.83,NNE,12,4.7,4.7,63,0.00,,,0.00,VWS V14.01,2013-03-25 23:40:00,
2013-03-25 19:41:00,34.5,23.4,29.83,NNE,19,6.4,6.4,63,0.00,,,0.00,VWS V14.01,2013-03-25 23:41:00,
2013-03-25 19:42:00,34.3,23.1,29.84,North,7,3.2,7.5,63,0.00,,,0.00,VWS V14.01,2013-03-25 23:42:00,
2013-03-25 19:43:00,34.7,23.3,29.83,North,6,5.7,5.7,63,0.00,,,0.00,VWS V14.01,2013-03-25 23:43:00,
2013-03-25 19:44:00,34.6,23.1,29.83,North,352,4.2,5.7,63,0.00,,,0.00,VWS V14.01,2013-03-25 23:44:00,
2013-03-25 19:45:00,34.7,23.3,29.83,North,350,9.2,9.2,63,0.00,,,0.00,VWS V14.01,2013-03-25 23:45:00,
2013-03-25 19:46:00,34.3,22.8,29.84,NW,311,7.8,9.2,62,0.00,,,0.00,VWS V14.01,2013-03-25 23:46:00,
2013-03-25 19:47:00,34.5,23.1,29.84,NW,326,5.6,7.8,63,0.00,,,0.00,VWS V14.01,2013-03-25 23:47:00,
2013-03-25 19:48:00,34.4,22.8,29.84,NNW,340,4.7,6.4,62,0.00,,,0.00,VWS V14.01,2013-03-25 23:48:00,
2013-03-25 19:49:00,34.3,22.8,29.84,NNE,12,3.4,3.4,62,0.00,,,0.00,VWS V14.01,2013-03-25 23:49:00,
2013-03-25 19:50:00,34.6,23.2,29.84,North,8,5.7,5.7,63,0.00,,,0.00,VWS V14.01,2013-03-25 23:50:00,
2013-03-25 19:51:00,34.5,21.7,29.84,NNE,23,4.9,5.7,59,0.00,,,0.00,VWS V14.01,2013-03-25 23:51:00,
2013-03-25 19:52:00,34.1,22.9,29.83,North,2,7.1,7.1,63,0.00,,,0.00,VWS V14.01,2013-03-25 23:52:00,
2013-03-25 19:53:00,34.3,23.1,29.83,NNW,337,7.1,7.1,63,0.00,,,0.00,VWS V14.01,2013-03-25 23:53:00,
2013-03-25 19:54:00,34.3,23.2,29.83,NE,47,4.7,7.1,63,0.00,,,0.00,VWS V14.01,2013-03-25 23:54:00,
2013-03-25 19:55:00,34.5,23.3,29.83,NNW,330,9.5,9.5,63,0.00,,,0.00,VWS V14.01,2013-03-25 23:55:00,
2013-03-25 19:56:00,34.4,23.1,29.84,NNW,335,4.7,9.5,63,0.00,,,0.00,VWS V14.01,2013-03-25 23:56:00,
2013-03-25 19:57:00,34.4,23.1,29.84,North,351,7.8,9.0,63,0.00,,,0.00,VWS V14.01,2013-03-25 23:57:00,
2013-03-25 19:58:00,34.3,23.1,29.84,NW,320,5.2,5.2,63,0.00,,,0.00,VWS V14.01,2013-03-25 23:58:00,
2013-03-25 19:59:00,34.3,23.1,29.84,North,8,6.6,6.6,63,0.00,,,0.00,VWS V14.01,2013-03-25 23:59:00,
2013-03-25 20:00:00,34.6,23.3,29.84,North,1,5.6,7.5,63,0.00,,,0.00,VWS V14.01,2013-03-26 00:00:00,
2013-03-25 20:01:00,34.3,23.0,29.83,North,4,5.9,6.4,63,0.00,,,0.00,VWS V14.01,2013-03-26 00:01:00,
2013-03-25 20:02:00,34.2,23.0,29.84,North,2,3.9,5.9,63,0.00,,,0.00,VWS V14.01,2013-03-26 00:02:00,
2013-03-25 20:03:00,34.2,23.2,29.84,NNW,338,8.7,8.7,64,0.00,,,0.00,VWS V14.01,2013-03-26 00:03:00,
2013-03-25 20:04:00,34.3,23.2,29.84,NNW,345,5.4,8.7,64,0.00,,,0.00,VWS V14.01,2013-03-26 00:04:00,
2013-03-25 20:05:00,34.2,23.2,29.84,NNW,346,4.7,5.4,64,0.00,,,0.00,VWS V14.01,2013-03-26 00:05:00,
2013-03-25 20:06:00,34.3,23.4,29.84,NNW,330,6.3,6.3,64,0.00,,,0.00,VWS V14.01,2013-03-26 00:06:00,
2013-03-25 20:07:00,34.2,23.4,29.84,North,8,4.7,6.3,64,0.00,,,0.00,VWS V14.01,2013-03-26 00:07:00,
2013-03-25 20:08:00,34.4,23.6,29.84,NNW,339,6.3,6.3,64,0.00,,,0.00,VWS V14.01,2013-03-26 00:08:00,
2013-03-25 20:09:00,34.1,23.2,29.84,NW,307,3.5,6.3,64,0.00,,,0.00,VWS V14.01,2013-03-26 00:09:00,
2013-03-25 20:10:00,34.3,23.6,29.84,North,351,5.2,5.2,64,0.00,,,0.00,VWS V14.01,2013-03-26 00:10:00,
2013-03-25 20:11:00,34.3,23.6,29.84,NNW,347,8.0,8.0,64,0.00,,,0.00,VWS V14.01,2013-03-26 00:11:00,
2013-03-25 20:12:00,34.0,23.3,29.85,North,360,2.8,8.0,64,0.00,,,0.00,VWS V14.01,2013-03-26 00:12:00,
2013-03-25 20:13:00,34.0,23.4,29.84,NNW,341,3.9,3.9,65,0.00,,,0.00,VWS V14.01,2013-03-26 00:13:00,
2013-03-25 20:14:00,33.9,23.4,29.85,NNW,345,2.0,5.1,65,0.00,,,0.00,VWS V14.01,2013-03-26 00:14:00,
2013-03-25 20:15:00,33.9,23.5,29.85,North,350,2.7,2.7,65,0.00,,,0.00,VWS V14.01,2013-03-26 00:15:00,
2013-03-25 20:16:00,33.9,23.6,29.84,WNW,294,3.7,3.7,66,0.00,,,0.00,VWS V14.01,2013-03-26 00:16:00,
2013-03-25 20:17:00,34.3,24.1,29.84,NNW,348,4.7,4.7,66,0.00,,,0.00,VWS V14.01,2013-03-26 00:17:00,
2013-03-25 20:18:00,34.3,23.8,29.84,NNW,331,8.5,8.5,65,0.00,,,0.00,VWS V14.01,2013-03-26 00:18:00,
2013-03-25 20:19:00,34.1,23.7,29.85,NE,41,7.3,8.5,65,0.00,,,0.00,VWS V14.01,2013-03-26 00:19:00,
2013-03-25 20:20:00,34.0,23.5,29.84,NNW,336,2.8,7.3,65,0.00,,,0.00,VWS V14.01,2013-03-26 00:20:00,
2013-03-25 20:21:00,34.1,23.7,29.85,North,0,7.3,7.3,65,0.00,,,0.00,VWS V14.01,2013-03-26 00:21:00,
2013-03-25 20:22:00,34.2,23.8,29.84,NNE,12,5.7,7.3,65,0.00,,,0.00,VWS V14.01,2013-03-26 00:22:00,
2013-03-25 20:23:00,34.0,23.5,29.85,NE,40,3.7,5.7,65,0.00,,,0.00,VWS V14.01,2013-03-26 00:23:00,
2013-03-25 20:24:00,34.0,23.6,29.85,North,6,6.4,6.4,65,0.00,,,0.00,VWS V14.01,2013-03-26 00:24:00,
2013-03-25 20:25:00,34.2,23.8,29.85,North,0,4.4,7.8,65,0.00,,,0.00,VWS V14.01,2013-03-26 00:25:00,
2013-03-25 20:26:00,34.3,23.8,29.85,North,4,6.9,6.9,65,0.00,,,0.00,VWS V14.01,2013-03-26 00:26:00,
2013-03-25 20:27:00,33.9,23.3,29.85,NNW,340,3.4,5.4,65,0.00,,,0.00,VWS V14.01,2013-03-26 00:27:00,
2013-03-25 20:28:00,33.9,23.3,29.85,NNW,340,3.4,5.4,65,0.00,,,0.00,VWS V14.01,2013-03-26 00:28:00,
2013-03-25 20:29:00,33.8,23.5,29.86,NE,40,4.4,4.9,65,0.00,,,0.00,VWS V14.01,2013-03-26 00:29:00,
2013-03-25 20:30:00,33.8,23.6,29.85,NW,322,3.0,4.4,66,0.00,,,0.00,VWS V14.01,2013-03-26 00:30:00,
2013-03-25 20:31:00,34.3,23.9,29.86,North,352,5.9,5.9,65,0.00,,,0.00,VWS V14.01,2013-03-26 00:31:00,
2013-03-25 20:32:00,34.0,23.7,29.85,NW,322,4.0,5.9,65,0.00,,,0.00,VWS V14.01,2013-03-26 00:32:00,
2013-03-25 20:33:00,34.1,23.8,29.85,NNE,20,4.2,4.2,66,0.00,,,0.00,VWS V14.01,2013-03-26 00:33:00,
2013-03-25 20:34:00,34.1,23.7,29.85,NNW,348,4.9,4.9,65,0.00,,,0.00,VWS V14.01,2013-03-26 00:34:00,
2013-03-25 20:35:00,34.1,23.8,29.85,North,5,3.4,3.4,66,0.00,,,0.00,VWS V14.01,2013-03-26 00:35:00,
2013-03-25 20:36:00,33.8,23.5,29.86,NW,323,2.3,5.9,65,0.00,,,0.00,VWS V14.01,2013-03-26 00:36:00,
2013-03-25 20:37:00,34.3,23.8,29.86,NNW,345,5.9,5.9,65,0.00,,,0.00,VWS V14.01,2013-03-26 00:37:00,
2013-03-25 20:38:00,34.1,23.6,29.86,NNW,334,6.8,6.8,65,0.00,,,0.00,VWS V14.01,2013-03-26 00:38:00,
2013-03-25 20:39:00,33.8,23.4,29.86,NNW,344,5.2,5.2,65,0.00,,,0.00,VWS V14.01,2013-03-26 00:39:00,
2013-03-25 20:40:00,33.8,23.4,29.86,NNE,15,3.2,5.2,65,0.00,,,0.00,VWS V14.01,2013-03-26 00:40:00,
2013-03-25 20:41:00,33.7,23.2,29.86,North,5,9.3,9.3,65,0.00,,,0.00,VWS V14.01,2013-03-26 00:41:00,
2013-03-25 20:42:00,33.9,23.5,29.87,North,0,3.7,3.7,65,0.00,,,0.00,VWS V14.01,2013-03-26 00:42:00,
2013-03-25 20:43:00,33.6,23.2,29.86,North,351,3.2,3.7,65,0.00,,,0.00,VWS V14.01,2013-03-26 00:43:00,
2013-03-25 20:44:00,33.8,23.5,29.86,NNW,334,5.2,5.2,66,0.00,,,0.00,VWS V14.01,2013-03-26 00:44:00,
2013-03-25 20:45:00,34.2,23.9,29.86,North,11,7.5,7.5,65,0.00,,,0.00,VWS V14.01,2013-03-26 00:45:00,
2013-03-25 20:46:00,34.1,23.6,29.86,NNW,339,5.1,7.5,65,0.00,,,0.00,VWS V14.01,2013-03-26 00:46:00,
2013-03-25 20:47:00,34.1,23.5,29.85,NNW,335,5.9,5.9,65,0.00,,,0.00,VWS V14.01,2013-03-26 00:47:00,
2013-03-25 20:48:00,33.7,23.2,29.86,NE,37,2.3,5.9,65,0.00,,,0.00,VWS V14.01,2013-03-26 00:48:00,
2013-03-25 20:49:00,33.7,23.2,29.86,North,3,2.8,7.1,65,0.00,,,0.00,VWS V14.01,2013-03-26 00:49:00,
2013-03-25 20:50:00,33.8,23.4,29.86,North,0,4.9,4.9,65,0.00,,,0.00,VWS V14.01,2013-03-26 00:50:00,
2013-03-25 20:51:00,34.1,23.8,29.85,North,351,6.8,6.8,66,0.00,,,0.00,VWS V14.01,2013-03-26 00:51:00,
2013-03-25 20:52:00,33.6,23.2,29.86,NNW,332,2.5,6.8,65,0.00,,,0.00,VWS V14.01,2013-03-26 00:52:00,
2013-03-25 20:53:00,33.9,23.5,29.86,North,351,3.0,6.6,65,0.00,,,0.00,VWS V14.01,2013-03-26 00:53:00,
2013-03-25 20:54:00,34.0,23.6,29.86,NNW,346,6.3,6.3,65,0.00,,,0.00,VWS V14.01,2013-03-26 00:54:00,
2013-03-25 20:55:00,33.7,23.4,29.87,North,7,6.4,6.4,65,0.00,,,0.00,VWS V14.01,2013-03-26 00:55:00,
2013-03-25 20:56:00,34.2,23.8,29.87,North,351,4.2,6.4,65,0.00,,,0.00,VWS V14.01,2013-03-26 00:56:00,
2013-03-25 20:57:00,33.8,23.4,29.87,NNW,333,3.9,5.4,65,0.00,,,0.00,VWS V14.01,2013-03-26 00:57:00,
2013-03-25 20:58:00,33.6,23.3,29.86,NNW,344,4.2,4.2,65,0.00,,,0.00,VWS V14.01,2013-03-26 00:58:00,
2013-03-25 20:59:00,33.8,23.6,29.86,NE,42,2.2,4.2,66,0.00,,,0.00,VWS V14.01,2013-03-26 00:59:00,
2013-03-25 21:00:00,33.9,23.8,29.86,North,0,4.7,4.7,66,0.00,,,0.00,VWS V14.01,2013-03-26 01:00:00,
2013-03-25 21:02:00,33.9,23.8,29.87,NW,320,4.5,4.5,66,0.00,,,0.00,VWS V14.01,2013-03-26 01:02:00,
2013-03-25 21:03:00,33.8,23.6,29.87,NNE,19,2.2,4.9,66,0.00,,,0.00,VWS V14.01,2013-03-26 01:03:00,
2013-03-25 21:04:00,34.1,23.8,29.87,NNE,17,6.8,6.8,66,0.00,,,0.00,VWS V14.01,2013-03-26 01:04:00,
2013-03-25 21:05:00,34.1,23.8,29.87,NNE,17,6.8,6.8,66,0.00,,,0.00,VWS V14.01,2013-03-26 01:05:00,
2013-03-25 21:07:00,34.3,23.9,29.92,North,0,8.0,8.7,66,0.00,,,0.00,VWS V14.01,2013-03-26 01:07:00,
2013-03-25 21:08:00,33.9,23.7,29.88,NE,40,3.5,8.7,66,0.00,,,0.00,VWS V14.01,2013-03-26 01:08:00,
2013-03-25 21:10:00,34.0,23.8,29.93,NNW,328,4.4,8.7,66,0.00,,,0.00,VWS V14.01,2013-03-26 01:10:00,
2013-03-25 21:12:00,34.1,23.9,29.88,North,3,5.2,8.7,66,0.00,,,0.00,VWS V14.01,2013-03-26 01:12:00,
2013-03-25 21:13:00,34.1,23.9,29.87,North,1,6.1,8.7,66,0.00,,,0.00,VWS V14.01,2013-03-26 01:13:00,
2013-03-25 21:15:00,34.0,23.8,29.87,NW,308,5.2,8.7,66,0.00,,,0.00,VWS V14.01,2013-03-26 01:15:00,
2013-03-25 21:17:00,34.1,23.9,29.88,North,4,3.5,10.2,66,0.00,,,0.00,VWS V14.01,2013-03-26 01:17:00,
2013-03-25 21:18:00,34.1,24.1,29.88,NE,40,5.4,10.2,66,0.00,,,0.00,VWS V14.01,2013-03-26 01:18:00,
2013-03-25 21:20:00,34.0,24.2,29.88,NNW,340,7.8,10.2,67,0.00,,,0.00,VWS V14.01,2013-03-26 01:20:00,
2013-03-25 21:23:00,34.0,24.2,29.89,NNE,13,5.1,10.2,67,0.00,,,0.00,VWS V14.01,2013-03-26 01:23:00,
2013-03-25 21:25:00,33.6,24.1,29.89,NNE,30,4.2,10.2,68,0.00,,,0.00,VWS V14.01,2013-03-26 01:25:00,
2013-03-25 21:26:00,33.6,24.2,29.89,NE,40,5.4,10.2,68,0.00,,,0.00,VWS V14.01,2013-03-26 01:26:00,
2013-03-25 21:27:00,33.9,24.5,29.88,NNW,347,6.1,10.2,68,0.00,,,0.00,VWS V14.01,2013-03-26 01:27:00,
2013-03-25 21:29:00,33.5,24.2,29.89,NNW,330,3.4,10.2,68,0.00,,,0.00,VWS V14.01,2013-03-26 01:29:00,
2013-03-25 21:30:00,33.8,24.7,29.89,NNE,26,7.5,10.2,69,0.00,,,0.00,VWS V14.01,2013-03-26 01:30:00,
2013-03-25 21:32:00,33.7,24.7,29.89,NNW,344,6.8,10.2,69,0.00,,,0.00,VWS V14.01,2013-03-26 01:32:00,
2013-03-25 21:34:00,33.6,24.6,29.89,North,4,5.1,10.2,69,0.00,,,0.00,VWS V14.01,2013-03-26 01:34:00,
2013-03-25 21:35:00,33.5,24.5,29.89,NNW,346,4.4,10.2,69,0.00,,,0.00,VWS V14.01,2013-03-26 01:35:00,
2013-03-25 21:37:00,33.6,25.1,29.89,NNW,345,6.4,10.2,71,0.00,,,0.00,VWS V14.01,2013-03-26 01:37:00,
2013-03-25 21:40:00,33.5,25.3,29.89,North,0,5.6,10.2,71,0.00,,,0.00,VWS V14.01,2013-03-26 01:40:00,
2013-03-25 21:42:00,33.4,25.3,29.90,NNW,334,4.7,10.2,72,0.00,,,0.00,VWS V14.01,2013-03-26 01:42:00,
2013-03-25 21:43:00,33.1,25.1,29.90,NE,38,5.9,10.2,72,0.00,,,0.00,VWS V14.01,2013-03-26 01:43:00,
2013-03-25 21:47:00,33.5,25.5,29.90,NNW,344,5.6,10.2,72,0.00,,,0.00,VWS V14.01,2013-03-26 01:47:00,
2013-03-25 21:48:00,33.4,25.5,29.90,North,7,4.9,10.2,72,0.00,,,0.00,VWS V14.01,2013-03-26 01:48:00,
2013-03-25 21:49:00,33.1,25.1,29.90,NNE,13,3.0,10.2,72,0.00,,,0.00,VWS V14.01,2013-03-26 01:49:00,
2013-03-25 21:52:00,33.0,25.4,29.91,NNW,342,5.1,10.2,73,0.00,,,0.00,VWS V14.01,2013-03-26 01:52:00,
2013-03-25 21:53:00,33.0,25.4,29.90,NE,39,3.0,10.2,73,0.00,,,0.00,VWS V14.01,2013-03-26 01:53:00,
2013-03-25 21:54:00,33.0,25.5,29.91,NW,323,2.8,10.2,74,0.00,,,0.00,VWS V14.01,2013-03-26 01:54:00,
2013-03-25 21:58:00,33.2,26.0,29.90,North,3,4.0,10.2,74,0.00,,,0.00,VWS V14.01,2013-03-26 01:58:00,
2013-03-25 21:59:00,33.3,26.0,29.94,North,9,5.7,10.2,74,0.00,,,0.00,VWS V14.01,2013-03-26 01:59:00,
2013-03-25 22:00:00,33.1,25.8,29.91,NNW,332,4.5,4.5,74,0.00,,,0.00,VWS V14.01,2013-03-26 02:00:00,
2013-03-25 22:01:00,33.8,26.4,29.91,NNE,19,10.5,10.5,74,0.00,,,0.00,VWS V14.01,2013-03-26 02:01:00,
2013-03-25 22:03:00,33.6,26.0,29.90,NNW,338,7.5,7.5,73,0.00,,,0.00,VWS V14.01,2013-03-26 02:03:00,
2013-03-25 22:04:00,33.5,25.8,29.91,NNW,332,5.1,6.9,73,0.00,,,0.00,VWS V14.01,2013-03-26 02:04:00,
2013-03-25 22:07:00,33.6,25.9,29.90,NNW,335,4.7,4.7,73,0.00,,,0.00,VWS V14.01,2013-03-26 02:07:00,
2013-03-25 22:08:00,33.7,26.0,29.90,NNW,334,5.6,5.6,73,0.00,,,0.00,VWS V14.01,2013-03-26 02:08:00,
2013-03-25 22:09:00,33.7,25.9,29.90,NNW,337,4.7,5.6,73,0.00,,,0.00,VWS V14.01,2013-03-26 02:09:00,
2013-03-25 22:12:00,33.7,25.7,29.90,NE,35,4.5,5.4,72,0.00,,,0.00,VWS V14.01,2013-03-26 02:12:00,
2013-03-25 22:13:00,33.7,25.7,29.91,SW,215,4.5,4.5,72,0.00,,,0.00,VWS V14.01,2013-03-26 02:13:00,
2013-03-25 22:14:00,33.6,25.7,29.91,NW,322,4.7,4.7,72,0.00,,,0.00,VWS V14.01,2013-03-26 02:14:00,
2013-03-25 22:18:00,34.0,25.4,29.91,NNW,348,8.5,8.5,71,0.00,,,0.00,VWS V14.01,2013-03-26 02:18:00,
2013-03-25 22:19:00,34.0,25.4,29.91,NNW,348,8.5,8.5,71,0.00,,,0.00,VWS V14.01,2013-03-26 02:19:00,
2013-03-25 22:21:00,33.8,25.3,29.91,NNW,333,7.1,7.1,70,0.00,,,0.00,VWS V14.01,2013-03-26 02:21:00,
2013-03-25 22:24:00,33.9,25.2,29.91,North,351,5.7,7.1,70,0.00,,,0.00,VWS V14.01,2013-03-26 02:24:00,
2013-03-25 22:25:00,33.9,25.2,29.91,NNE,19,8.8,8.8,70,0.00,,,0.00,VWS V14.01,2013-03-26 02:25:00,
2013-03-25 22:27:00,33.7,25.0,29.91,NW,326,2.7,4.7,70,0.00,,,0.00,VWS V14.01,2013-03-26 02:27:00,
2013-03-25 22:28:00,33.6,24.9,29.91,North,5,7.5,7.5,70,0.00,,,0.00,VWS V14.01,2013-03-26 02:28:00,
2013-03-25 22:31:00,33.8,25.4,29.91,NW,326,5.6,6.8,71,0.00,,,0.00,VWS V14.01,2013-03-26 02:31:00,
2013-03-25 22:32:00,33.9,25.4,29.90,NNW,342,8.0,8.0,71,0.00,,,0.00,VWS V14.01,2013-03-26 02:32:00,
2013-03-25 22:34:00,33.8,25.1,29.91,NW,322,6.9,8.7,70,0.00,,,0.00,VWS V14.01,2013-03-26 02:34:00,
2013-03-25 22:37:00,33.9,25.2,29.92,NNW,341,9.5,9.5,70,0.00,,,0.00,VWS V14.01,2013-03-26 02:37:00,
2013-03-25 22:38:00,33.9,25.1,29.92,North,8,4.5,9.5,70,0.00,,,0.00,VWS V14.01,2013-03-26 02:38:00,
2013-03-25 22:39:00,33.8,25.0,29.92,North,351,7.1,7.1,70,0.00,,,0.00,VWS V14.01,2013-03-26 02:39:00,
2013-03-25 22:40:00,33.6,24.9,29.92,NE,42,5.6,7.1,70,0.00,,,0.00,VWS V14.01,2013-03-26 02:40:00,
2013-03-25 22:42:00,33.6,25.0,29.92,North,2,4.0,4.0,70,0.00,,,0.00,VWS V14.01,2013-03-26 02:42:00,
2013-03-25 22:43:00,33.7,25.1,29.91,NNW,340,5.7,5.7,70,0.00,,,0.00,VWS V14.01,2013-03-26 02:43:00,
2013-03-25 22:45:00,33.5,24.9,29.91,NNE,12,3.9,8.5,70,0.00,,,0.00,VWS V14.01,2013-03-26 02:45:00,
2013-03-25 22:49:00,33.3,25.2,29.92,NNW,332,6.3,6.3,72,0.00,,,0.00,VWS V14.01,2013-03-26 02:49:00,
2013-03-25 22:50:00,33.0,24.9,29.92,NNW,329,3.5,4.5,72,0.00,,,0.00,VWS V14.01,2013-03-26 02:50:00,
2013-03-25 22:51:00,33.3,25.2,29.92,NW,304,6.9,6.9,72,0.00,,,0.00,VWS V14.01,2013-03-26 02:51:00,
2013-03-25 22:52:00,33.1,25.0,29.92,North,0,5.4,6.9,72,0.00,,,0.00,VWS V14.01,2013-03-26 02:52:00,
2013-03-25 22:55:00,33.0,24.9,29.92,NE,40,4.7,5.7,72,0.00,,,0.00,VWS V14.01,2013-03-26 02:55:00,
2013-03-25 22:56:00,32.9,24.8,29.92,NNW,329,2.8,5.7,72,0.00,,,0.00,VWS V14.01,2013-03-26 02:56:00,
2013-03-25 22:57:00,33.0,25.1,29.92,North,5,4.9,6.1,73,0.00,,,0.00,VWS V14.01,2013-03-26 02:57:00,
2013-03-25 22:59:00,32.8,25.1,29.93,North,11,4.0,4.0,73,0.00,,,0.00,VWS V14.01,2013-03-26 02:59:00,
2013-03-25 23:00:00,33.8,26.4,29.91,NNE,19,10.5,10.5,74,0.00,,,0.00,VWS V14.01,2013-03-26 03:00:00,
2013-03-25 23:01:00,32.7,25.1,29.93,North,1,3.9,4.0,73,0.00,,,0.00,VWS V14.01,2013-03-26 03:01:00,
2013-03-25 23:02:00,33.6,26.0,29.90,NNW,348,5.7,10.5,74,0.00,,,0.00,VWS V14.01,2013-03-26 03:02:00,
2013-03-25 23:03:00,32.7,25.4,29.92,NNW,341,3.7,3.7,74,0.00,,,0.00,VWS V14.01,2013-03-26 03:03:00,
2013-03-25 23:04:00,32.8,25.6,29.93,NW,326,5.2,6.4,74,0.00,,,0.00,VWS V14.01,2013-03-26 03:04:00,
2013-03-25 23:05:00,33.6,26.0,29.95,North,351,5.6,7.8,73,0.00,,,0.00,VWS V14.01,2013-03-26 03:05:00,
2013-03-25 23:06:00,33.5,25.9,29.91,WNW,299,2.3,6.6,73,0.00,,,0.00,VWS V14.01,2013-03-26 03:06:00,
2013-03-25 23:07:00,32.7,25.5,29.94,NNE,18,4.5,4.9,74,0.00,,,0.00,VWS V14.01,2013-03-26 03:07:00,
2013-03-25 23:08:00,32.3,25.2,29.93,NNW,329,4.4,4.9,74,0.00,,,0.00,VWS V14.01,2013-03-26 03:08:00,
2013-03-25 23:09:00,33.6,25.8,29.90,NNW,343,3.5,5.6,73,0.00,,,0.00,VWS V14.01,2013-03-26 03:09:00,
2013-03-25 23:10:00,32.2,25.1,29.92,NW,324,5.4,5.4,75,0.00,,,0.00,VWS V14.01,2013-03-26 03:10:00,
2013-03-25 23:11:00,33.7,25.7,29.90,NNW,327,5.4,9.9,72,0.00,,,0.00,VWS V14.01,2013-03-26 03:11:00,
2013-03-25 23:12:00,33.7,25.7,29.90,NE,35,4.5,5.4,72,0.00,,,0.00,VWS V14.01,2013-03-26 03:12:00,
2013-03-25 23:13:00,32.2,25.4,29.93,NW,320,4.4,4.4,76,0.00,,,0.00,VWS V14.01,2013-03-26 03:13:00,
2013-03-25 23:14:00,32.5,25.9,29.92,NNW,330,7.6,7.6,76,0.00,,,0.00,VWS V14.01,2013-03-26 03:14:00,
2013-03-25 23:15:00,32.1,25.3,29.93,NNW,336,5.9,7.6,76,0.00,,,0.00,VWS V14.01,2013-03-26 03:15:00,
2013-03-25 23:16:00,33.8,25.7,29.91,North,7,7.1,10.2,72,0.00,,,0.00,VWS V14.01,2013-03-26 03:16:00,
2013-03-25 23:17:00,33.8,25.4,29.90,WNW,301,6.4,7.1,71,0.00,,,0.00,VWS V14.01,2013-03-26 03:17:00,
2013-03-25 23:18:00,32.1,25.2,29.93,NW,318,3.5,4.2,76,0.00,,,0.00,VWS V14.01,2013-03-26 03:18:00,
2013-03-25 23:19:00,34.0,25.4,29.94,NNE,14,6.9,8.5,70,0.00,,,0.00,VWS V14.01,2013-03-26 03:19:00,
2013-03-25 23:20:00,32.5,25.8,29.93,NNW,346,5.6,5.6,76,0.00,,,0.00,VWS V14.01,2013-03-26 03:20:00,
2013-03-25 23:21:00,31.7,24.9,29.93,NNW,343,3.7,5.7,76,0.00,,,0.00,VWS V14.01,2013-03-26 03:21:00,
2013-03-25 23:22:00,32.4,25.7,29.94,NNW,330,4.9,5.6,76,0.00,,,0.00,VWS V14.01,2013-03-26 03:22:00,
2013-03-25 23:23:00,33.9,25.3,29.91,NNW,335,7.1,8.7,70,0.00,,,0.00,VWS V14.01,2013-03-26 03:23:00,
2013-03-25 23:24:00,33.9,25.2,29.91,NW,311,8.0,8.0,70,0.00,,,0.00,VWS V14.01,2013-03-26 03:24:00,
2013-03-25 23:25:00,32.1,25.5,29.93,NW,324,4.7,4.7,76,0.00,,,0.00,VWS V14.01,2013-03-26 03:25:00,
2013-03-25 23:26:00,32.4,25.9,29.93,NW,308,5.1,5.1,77,0.00,,,0.00,VWS V14.01,2013-03-26 03:26:00,
2013-03-25 23:27:00,32.1,25.6,29.94,NE,39,5.6,8.0,77,0.00,,,0.00,VWS V14.01,2013-03-26 03:27:00,
2013-03-25 23:28:00,33.9,25.2,29.91,NNW,337,5.9,7.5,70,0.00,,,0.00,VWS V14.01,2013-03-26 03:28:00,
2013-03-25 23:29:00,32.0,25.4,29.93,NNW,336,4.7,5.2,76,0.00,,,0.00,VWS V14.01,2013-03-26 03:29:00,
2013-03-25 23:30:00,33.7,25.2,29.92,NNW,330,4.4,6.6,71,0.00,,,0.00,VWS V14.01,2013-03-26 03:30:00,
2013-03-25 23:31:00,33.8,25.4,29.91,NW,326,5.6,6.8,71,0.00,,,0.00,VWS V14.01,2013-03-26 03:31:00,
2013-03-25 23:32:00,32.0,25.7,29.94,NNW,342,4.2,5.2,77,0.00,,,0.00,VWS V14.01,2013-03-26 03:32:00,
2013-03-25 23:33:00,33.9,25.2,29.91,NNW,342,8.7,8.7,70,0.00,,,0.00,VWS V14.01,2013-03-26 03:33:00,
2013-03-25 23:34:00,32.0,25.7,29.94,North,352,3.7,3.7,77,0.00,,,0.00,VWS V14.01,2013-03-26 03:34:00,
2013-03-25 23:35:00,33.7,25.0,29.92,North,8,5.7,6.4,70,0.00,,,0.00,VWS V14.01,2013-03-26 03:35:00,
2013-03-25 23:36:00,33.8,25.1,29.91,NNW,327,6.1,6.1,70,0.00,,,0.00,VWS V14.01,2013-03-26 03:36:00,
2013-03-25 23:37:00,31.7,24.5,29.94,NNW,327,2.7,4.9,74,0.00,,,0.00,VWS V14.01,2013-03-26 03:37:00,
2013-03-25 23:38:00,32.0,25.9,29.94,NNW,329,3.7,3.7,78,0.00,,,0.00,VWS V14.01,2013-03-26 03:38:00,
2013-03-25 23:39:00,31.4,25.3,29.94,NNW,334,4.0,4.0,78,0.00,,,0.00,VWS V14.01,2013-03-26 03:39:00,
2013-03-25 23:40:00,33.6,24.9,29.92,NE,42,5.6,7.1,70,0.00,,,0.00,VWS V14.01,2013-03-26 03:40:00,
2013-03-25 23:41:00,33.6,24.9,29.92,NNW,336,3.9,5.6,70,0.00,,,0.00,VWS V14.01,2013-03-26 03:41:00,
2013-03-25 23:42:00,33.6,25.0,29.92,NW,326,4.5,4.5,70,0.00,,,0.00,VWS V14.01,2013-03-26 03:42:00,
2013-03-25 23:43:00,31.9,26.0,29.93,NNE,19,4.0,5.1,78,0.00,,,0.00,VWS V14.01,2013-03-26 03:43:00,
2013-03-25 23:44:00,32.0,26.1,29.94,NW,317,3.9,3.9,79,0.00,,,0.00,VWS V14.01,2013-03-26 03:44:00,
2013-03-25 23:45:00,31.8,26.0,29.94,North,351,4.7,4.7,79,0.00,,,0.00,VWS V14.01,2013-03-26 03:45:00,
2013-03-25 23:46:00,33.3,24.7,29.92,North,0,3.7,3.9,70,0.00,,,0.00,VWS V14.01,2013-03-26 03:46:00,
2013-03-25 23:47:00,33.3,24.9,29.92,NNW,340,3.9,3.9,71,0.00,,,0.00,VWS V14.01,2013-03-26 03:47:00,
2013-03-25 23:48:00,32.0,26.2,29.94,NNW,333,5.7,5.7,79,0.00,,,0.00,VWS V14.01,2013-03-26 03:48:00,
2013-03-25 23:49:00,33.3,25.2,29.92,NNW,332,6.3,6.3,72,0.00,,,0.00,VWS V14.01,2013-03-26 03:49:00,
2013-03-25 23:50:00,32.0,26.2,29.94,NW,321,5.1,5.1,79,0.00,,,0.00,VWS V14.01,2013-03-26 03:50:00,
2013-03-25 23:51:00,33.3,25.2,29.92,NW,304,6.9,6.9,72,0.00,,,0.00,VWS V14.01,2013-03-26 03:51:00,
2013-03-25 23:52:00,33.0,25.0,29.92,NE,46,3.9,6.9,72,0.00,,,0.00,VWS V14.01,2013-03-26 03:52:00,
2013-03-25 23:53:00,33.1,25.1,29.93,NW,320,7.5,7.5,72,0.00,,,0.00,VWS V14.01,2013-03-26 03:53:00,
2013-03-25 23:54:00,31.9,26.2,29.94,North,11,3.4,5.2,79,0.00,,,0.00,VWS V14.01,2013-03-26 03:54:00,
2013-03-25 23:55:00,31.8,26.0,29.94,North,360,2.7,3.9,79,0.00,,,0.00,VWS V14.01,2013-03-26 03:55:00,
2013-03-25 23:56:00,32.0,26.3,29.94,North,3,3.2,3.2,79,0.00,,,0.00,VWS V14.01,2013-03-26 03:56:00,
2013-03-25 23:57:00,32.0,26.3,29.94,North,3,3.2,3.2,79,0.00,,,0.00,VWS V14.01,2013-03-26 03:57:00,
2013-03-25 23:58:00,32.8,25.1,29.92,NW,307,3.2,4.9,73,0.00,,,0.00,VWS V14.01,2013-03-26 03:58:00,
2013-03-25 23:59:00,32.8,25.1,29.93,North,11,4.0,4.0,73,0.00,,,0.00,VWS V14.01,2013-03-26 03:59:00,